Time,TemperatureF,DewpointF,PressureIn,WindDirection,WindDirectionDegrees,WindSpeedMPH,WindSpeedGustMPH,Humidity,HourlyPrecipIn,Conditions,Clouds,dailyrainin,SoftwareType,DateUTC
2013-12-10 00:01:00,30.6,30.6,29.89,West,278,0.0,0.0,100,0.00,,,0.00,WeatherCatV1.22B15,2013-12-10 05:01:00,
2013-12-10 00:02:00,30.6,30.6,29.91,West,278,0.0,0.0,100,0.00,,,0.00,WeatherCatV1.22B15,2013-12-10 05:02:00,
2013-12-10 00:03:00,30.6,30.6,29.90,West,278,0.0,0.0,100,0.00,,,0.00,WeatherCatV1.22B15,2013-12-10 05:03:00,
2013-12-10 00:04:00,30.6,30.6,29.90,West,278,0.0,0.0,100,0.00,,,0.00,WeatherCatV1.22B15,2013-12-10 05:04:00,
2013-12-10 00:07:00,30.6,30.6,29.90,West,278,0.0,0.0,100,0.00,,,0.00,WeatherCatV1.22B15,2013-12-10 05:07:00,
2013-12-10 00:08:00,30.6,30.6,29.90,West,278,0.0,0.0,100,0.00,,,0.00,WeatherCatV1.22B15,2013-12-10 05:08:00,
2013-12-10 00:09:00,30.6,30.6,29.90,West,278,0.0,0.0,100,0.00,,,0.00,WeatherCatV1.22B15,2013-12-10 05:09:00,
2013-12-10 00:10:00,30.6,30.6,29.90,West,278,0.0,0.0,100,0.00,,,0.00,WeatherCatV1.22B15,2013-12-10 05:10:00,
2013-12-10 00:12:00,30.7,30.7,29.90,West,278,0.0,0.0,100,0.00,,,0.00,WeatherCatV1.22B15,2013-12-10 05:12:00,
2013-12-10 00:14:00,30.7,30.7,29.90,West,278,0.0,0.0,100,0.00,,,0.00,WeatherCatV1.22B15,2013-12-10 05:14:00,
2013-12-10 00:16:00,30.6,30.6,29.90,West,278,0.0,0.0,100,0.00,,,0.00,WeatherCatV1.22B15,2013-12-10 05:16:00,
2013-12-10 00:17:00,30.6,30.6,29.91,West,278,0.0,0.0,100,0.00,,,0.00,WeatherCatV1.22B15,2013-12-10 05:17:00,
2013-12-10 00:19:00,30.5,30.5,29.90,West,278,0.0,0.0,100,0.00,,,0.00,WeatherCatV1.22B15,2013-12-10 05:19:00,
2013-12-10 00:20:00,30.5,30.5,29.90,West,278,0.0,0.0,100,0.00,,,0.00,WeatherCatV1.22B15,2013-12-10 05:20:00,
2013-12-10 00:21:00,30.6,30.6,29.90,West,278,0.0,0.0,100,0.00,,,0.00,WeatherCatV1.22B15,2013-12-10 05:21:00,
2013-12-10 00:22:00,30.6,30.6,29.91,West,278,0.0,0.0,100,0.00,,,0.00,WeatherCatV1.22B15,2013-12-10 05:22:00,
2013-12-10 00:23:00,30.5,30.5,29.92,West,278,0.0,0.0,100,0.00,,,0.00,WeatherCatV1.22B15,2013-12-10 05:23:00,
2013-12-10 00:24:00,30.5,30.5,29.91,West,278,0.0,0.0,100,0.00,,,0.00,WeatherCatV1.22B15,2013-12-10 05:24:00,
2013-12-10 00:25:00,30.5,30.5,29.92,West,278,0.0,0.0,100,0.00,,,0.00,WeatherCatV1.22B15,2013-12-10 05:25:00,
2013-12-10 00:26:00,30.5,30.5,29.91,West,278,0.0,0.0,100,0.00,,,0.00,WeatherCatV1.22B15,2013-12-10 05:26:00,
2013-12-10 00:28:00,30.5,30.5,29.91,West,278,0.0,0.0,100,0.00,,,0.00,WeatherCatV1.22B15,2013-12-10 05:28:00,
2013-12-10 00:30:00,30.5,30.5,29.91,West,278,0.0,0.0,100,0.00,,,0.00,WeatherCatV1.22B15,2013-12-10 05:30:00,
2013-12-10 00:31:00,30.5,30.5,29.91,West,278,0.0,0.0,100,0.00,,,0.00,WeatherCatV1.22B15,2013-12-10 05:31:00,
2013-12-10 00:33:00,30.3,30.3,29.91,West,278,0.0,0.0,100,0.00,,,0.00,WeatherCatV1.22B15,2013-12-10 05:33:00,
2013-12-10 00:35:00,30.3,30.3,29.91,West,278,0.0,0.0,100,0.00,,,0.00,WeatherCatV1.22B15,2013-12-10 05:35:00,
2013-12-10 00:36:00,30.3,30.3,29.91,West,278,0.0,0.0,100,0.00,,,0.00,WeatherCatV1.22B15,2013-12-10 05:36:00,
2013-12-10 00:37:00,30.3,30.3,29.91,West,278,0.0,0.0,100,0.00,,,0.00,WeatherCatV1.22B15,2013-12-10 05:37:00,
2013-12-10 00:38:00,30.3,30.3,29.91,West,278,0.0,0.0,100,0.00,,,0.00,WeatherCatV1.22B15,2013-12-10 05:38:00,
2013-12-10 00:40:00,30.4,30.4,29.91,West,278,0.0,0.0,100,0.00,,,0.00,WeatherCatV1.22B15,2013-12-10 05:40:00,
2013-12-10 00:42:00,30.2,30.2,29.91,West,278,0.0,0.0,100,0.00,,,0.00,WeatherCatV1.22B15,2013-12-10 05:42:00,
2013-12-10 00:43:00,30.2,30.2,29.90,West,278,0.0,0.0,100,0.00,,,0.00,WeatherCatV1.22B15,2013-12-10 05:43:00,
2013-12-10 00:44:00,30.2,30.2,29.91,West,278,0.0,0.0,100,0.00,,,0.00,WeatherCatV1.22B15,2013-12-10 05:44:00,
2013-12-10 00:45:00,30.2,30.2,29.91,West,278,0.0,0.0,100,0.00,,,0.00,WeatherCatV1.22B15,2013-12-10 05:45:00,
2013-12-10 00:48:00,30.2,30.2,29.90,West,278,0.0,0.0,100,0.00,,,0.00,WeatherCatV1.22B15,2013-12-10 05:48:00,
2013-12-10 00:49:00,30.2,30.2,29.90,West,278,0.0,0.0,100,0.00,,,0.00,WeatherCatV1.22B15,2013-12-10 05:49:00,
2013-12-10 00:50:00,30.2,30.2,29.90,West,278,0.0,0.0,100,0.00,,,0.00,WeatherCatV1.22B15,2013-12-10 05:50:00,
2013-12-10 00:52:00,30.0,30.0,29.90,West,278,0.0,0.0,100,0.00,,,0.00,WeatherCatV1.22B15,2013-12-10 05:52:00,
2013-12-10 00:55:00,30.0,30.0,29.90,West,278,0.0,0.0,100,0.00,,,0.00,WeatherCatV1.22B15,2013-12-10 05:55:00,
2013-12-10 00:57:00,30.0,30.0,29.90,West,278,0.0,0.0,100,0.00,,,0.00,WeatherCatV1.22B15,2013-12-10 05:57:00,
2013-12-10 00:58:00,30.0,30.0,29.90,West,278,0.0,0.0,100,0.00,,,0.00,WeatherCatV1.22B15,2013-12-10 05:58:00,
2013-12-10 01:00:00,30.0,30.0,29.90,West,278,0.0,0.0,100,0.00,,,0.00,WeatherCatV1.22B15,2013-12-10 06:00:00,
2013-12-10 01:01:00,30.0,30.0,29.90,West,278,0.0,0.0,100,0.00,,,0.00,WeatherCatV1.22B15,2013-12-10 06:01:00,
2013-12-10 01:02:00,30.0,30.0,29.90,West,278,0.0,0.0,100,0.00,,,0.00,WeatherCatV1.22B15,2013-12-10 06:02:00,
2013-12-10 01:05:00,30.0,30.0,29.89,West,278,0.0,0.0,100,0.00,,,0.00,WeatherCatV1.22B15,2013-12-10 06:05:00,
2013-12-10 01:06:00,30.1,30.1,29.89,West,278,0.0,0.0,100,0.00,,,0.00,WeatherCatV1.22B15,2013-12-10 06:06:00,
2013-12-10 01:07:00,30.0,30.0,29.90,West,278,0.0,0.0,100,0.00,,,0.00,WeatherCatV1.22B15,2013-12-10 06:07:00,
2013-12-10 01:08:00,30.1,30.1,29.90,West,278,0.0,0.0,100,0.00,,,0.00,WeatherCatV1.22B15,2013-12-10 06:08:00,
2013-12-10 01:10:00,30.0,30.0,29.91,West,278,0.0,0.0,100,0.00,,,0.00,WeatherCatV1.22B15,2013-12-10 06:10:00,
2013-12-10 01:12:00,30.0,30.0,29.90,West,278,0.0,0.0,100,0.00,,,0.00,WeatherCatV1.22B15,2013-12-10 06:12:00,
2013-12-10 01:13:00,30.1,30.1,29.90,West,278,0.0,0.0,100,0.00,,,0.00,WeatherCatV1.22B15,2013-12-10 06:13:00,
2013-12-10 01:14:00,30.0,30.0,29.90,West,278,0.0,0.0,100,0.00,,,0.00,WeatherCatV1.22B15,2013-12-10 06:14:00,
2013-12-10 01:16:00,29.9,29.9,29.91,West,278,0.0,0.0,100,0.00,,,0.00,WeatherCatV1.22B15,2013-12-10 06:16:00,
2013-12-10 01:17:00,29.9,29.9,29.90,West,278,0.0,0.0,100,0.00,,,0.00,WeatherCatV1.22B15,2013-12-10 06:17:00,
2013-12-10 01:18:00,29.9,29.9,29.90,West,278,0.0,0.0,100,0.00,,,0.00,WeatherCatV1.22B15,2013-12-10 06:18:00,
2013-12-10 01:19:00,29.9,29.9,29.91,West,278,0.0,0.0,100,0.00,,,0.00,WeatherCatV1.22B15,2013-12-10 06:19:00,
2013-12-10 01:22:00,29.7,29.7,29.91,West,278,0.0,0.0,100,0.00,,,0.00,WeatherCatV1.22B15,2013-12-10 06:22:00,
2013-12-10 01:23:00,29.8,29.8,29.91,West,278,0.0,0.0,100,0.00,,,0.00,WeatherCatV1.22B15,2013-12-10 06:23:00,
2013-12-10 01:24:00,29.7,29.7,29.91,West,278,0.0,0.0,100,0.00,,,0.00,WeatherCatV1.22B15,2013-12-10 06:24:00,
2013-12-10 01:25:00,29.6,29.6,29.91,West,278,0.0,0.0,100,0.00,,,0.00,WeatherCatV1.22B15,2013-12-10 06:25:00,
2013-12-10 01:27:00,29.6,29.6,29.91,West,278,0.0,0.0,100,0.00,,,0.00,WeatherCatV1.22B15,2013-12-10 06:27:00,
2013-12-10 01:28:00,29.6,29.6,29.91,West,278,0.0,0.0,100,0.00,,,0.00,WeatherCatV1.22B15,2013-12-10 06:28:00,
2013-12-10 01:29:00,29.6,29.6,29.90,West,278,0.0,0.0,100,0.00,,,0.00,WeatherCatV1.22B15,2013-12-10 06:29:00,
2013-12-10 01:31:00,29.4,29.4,29.90,West,278,0.0,0.0,100,0.00,,,0.00,WeatherCatV1.22B15,2013-12-10 06:31:00,
2013-12-10 01:32:00,29.4,29.4,29.90,West,278,0.0,0.0,100,0.00,,,0.00,WeatherCatV1.22B15,2013-12-10 06:32:00,
2013-12-10 01:33:00,29.4,29.4,29.90,West,278,0.0,0.0,100,0.00,,,0.00,WeatherCatV1.22B15,2013-12-10 06:33:00,
2013-12-10 01:34:00,29.4,29.4,29.90,West,278,0.0,0.0,100,0.00,,,0.00,WeatherCatV1.22B15,2013-12-10 06:34:00,
2013-12-10 01:36:00,29.4,29.4,29.91,West,278,0.0,0.0,100,0.00,,,0.00,WeatherCatV1.22B15,2013-12-10 06:36:00,
2013-12-10 01:39:00,29.5,29.5,29.91,West,278,0.0,0.0,100,0.00,,,0.00,WeatherCatV1.22B15,2013-12-10 06:39:00,
2013-12-10 01:40:00,29.6,29.6,29.90,West,278,0.0,0.0,100,0.00,,,0.00,WeatherCatV1.22B15,2013-12-10 06:40:00,
2013-12-10 01:42:00,29.6,29.6,29.90,West,278,0.0,0.0,100,0.00,,,0.00,WeatherCatV1.22B15,2013-12-10 06:42:00,
2013-12-10 01:44:00,29.6,29.6,29.90,West,278,0.0,0.0,100,0.00,,,0.00,WeatherCatV1.22B15,2013-12-10 06:44:00,
2013-12-10 01:45:00,29.6,29.6,29.91,West,278,0.0,0.0,100,0.00,,,0.00,WeatherCatV1.22B15,2013-12-10 06:45:00,
2013-12-10 01:47:00,29.6,29.6,29.90,West,278,0.0,0.0,100,0.00,,,0.00,WeatherCatV1.22B15,2013-12-10 06:47:00,
2013-12-10 01:49:00,29.6,29.6,29.90,West,278,0.0,0.0,100,0.00,,,0.00,WeatherCatV1.22B15,2013-12-10 06:49:00,
2013-12-10 01:50:00,29.6,29.6,29.90,West,278,0.0,0.0,100,0.00,,,0.00,WeatherCatV1.22B15,2013-12-10 06:50:00,
2013-12-10 01:51:00,29.6,29.6,29.90,West,278,0.0,0.0,100,0.00,,,0.00,WeatherCatV1.22B15,2013-12-10 06:51:00,
2013-12-10 01:54:00,29.6,29.6,29.90,West,278,0.0,0.0,100,0.00,,,0.00,WeatherCatV1.22B15,2013-12-10 06:54:00,
2013-12-10 01:55:00,29.6,29.6,29.90,West,278,0.0,0.0,100,0.00,,,0.00,WeatherCatV1.22B15,2013-12-10 06:55:00,
2013-12-10 01:58:00,29.5,29.5,29.91,West,278,0.0,0.0,100,0.00,,,0.00,WeatherCatV1.22B15,2013-12-10 06:58:00,
2013-12-10 01:59:00,29.6,29.6,29.91,West,278,0.0,0.0,100,0.00,,,0.00,WeatherCatV1.22B15,2013-12-10 06:59:00,
2013-12-10 02:01:00,29.5,29.5,29.91,West,278,0.0,0.0,100,0.00,,,0.00,WeatherCatV1.22B15,2013-12-10 07:01:00,
2013-12-10 02:02:00,29.6,29.6,29.91,West,278,0.0,0.0,100,0.00,,,0.00,WeatherCatV1.22B15,2013-12-10 07:02:00,
2013-12-10 02:03:00,29.6,29.6,29.92,West,278,0.0,0.0,100,0.00,,,0.00,WeatherCatV1.22B15,2013-12-10 07:03:00,
2013-12-10 02:05:00,29.6,29.6,29.92,West,278,0.0,0.0,100,0.00,,,0.00,WeatherCatV1.22B15,2013-12-10 07:05:00,
2013-12-10 02:06:00,29.6,29.6,29.92,West,278,0.0,0.0,100,0.00,,,0.00,WeatherCatV1.22B15,2013-12-10 07:06:00,
2013-12-10 02:07:00,29.6,29.6,29.92,West,278,0.0,0.0,100,0.00,,,0.00,WeatherCatV1.22B15,2013-12-10 07:07:00,
2013-12-10 02:09:00,29.6,29.6,29.92,West,278,0.0,0.0,100,0.00,,,0.00,WeatherCatV1.22B15,2013-12-10 07:09:00,
2013-12-10 02:10:00,29.6,29.6,29.92,West,278,0.0,0.0,100,0.00,,,0.00,WeatherCatV1.22B15,2013-12-10 07:10:00,
2013-12-10 02:11:00,29.5,29.5,29.92,West,278,0.0,0.0,100,0.00,,,0.00,WeatherCatV1.22B15,2013-12-10 07:11:00,
2013-12-10 02:15:00,29.4,29.4,29.91,West,278,0.0,0.0,100,0.00,,,0.00,WeatherCatV1.22B15,2013-12-10 07:15:00,
2013-12-10 02:16:00,29.4,29.4,29.91,West,278,0.0,0.0,100,0.00,,,0.00,WeatherCatV1.22B15,2013-12-10 07:16:00,
2013-12-10 02:17:00,29.4,29.4,29.91,West,278,0.0,0.0,100,0.00,,,0.00,WeatherCatV1.22B15,2013-12-10 07:17:00,
2013-12-10 02:20:00,29.3,29.3,29.91,West,278,0.0,0.0,100,0.00,,,0.00,WeatherCatV1.22B15,2013-12-10 07:20:00,
2013-12-10 02:21:00,29.3,29.3,29.90,West,278,0.0,0.0,100,0.00,,,0.00,WeatherCatV1.22B15,2013-12-10 07:21:00,
2013-12-10 02:22:00,29.3,29.3,29.91,West,278,0.0,0.0,100,0.00,,,0.00,WeatherCatV1.22B15,2013-12-10 07:22:00,
2013-12-10 02:24:00,29.3,29.3,29.90,West,278,0.0,0.0,100,0.00,,,0.00,WeatherCatV1.22B15,2013-12-10 07:24:00,
2013-12-10 02:25:00,29.3,29.3,29.91,West,278,0.0,0.0,100,0.00,,,0.00,WeatherCatV1.22B15,2013-12-10 07:25:00,
2013-12-10 02:26:00,29.3,29.3,29.91,West,278,0.0,0.0,100,0.00,,,0.00,WeatherCatV1.22B15,2013-12-10 07:26:00,
2013-12-10 02:27:00,29.2,29.2,29.91,West,278,0.0,0.0,100,0.00,,,0.00,WeatherCatV1.22B15,2013-12-10 07:27:00,
2013-12-10 02:28:00,29.2,29.2,29.91,West,278,0.0,0.0,100,0.00,,,0.00,WeatherCatV1.22B15,2013-12-10 07:28:00,
2013-12-10 02:30:00,29.1,29.1,29.91,West,278,0.0,0.0,100,0.00,,,0.00,WeatherCatV1.22B15,2013-12-10 07:30:00,
2013-12-10 02:31:00,29.1,29.1,29.91,West,278,0.0,0.0,100,0.00,,,0.00,WeatherCatV1.22B15,2013-12-10 07:31:00,
2013-12-10 02:33:00,29.1,29.1,29.91,West,278,0.0,0.0,100,0.00,,,0.00,WeatherCatV1.22B15,2013-12-10 07:33:00,
2013-12-10 02:36:00,29.1,29.1,29.91,West,278,0.0,0.0,100,0.00,,,0.00,WeatherCatV1.22B15,2013-12-10 07:36:00,
2013-12-10 02:37:00,29.1,29.1,29.90,West,278,0.0,0.0,100,0.00,,,0.00,WeatherCatV1.22B15,2013-12-10 07:37:00,
2013-12-10 02:38:00,29.1,29.1,29.90,West,278,0.0,0.0,100,0.00,,,0.00,WeatherCatV1.22B15,2013-12-10 07:38:00,
2013-12-10 02:39:00,29.1,29.1,29.90,West,278,0.0,0.0,100,0.00,,,0.00,WeatherCatV1.22B15,2013-12-10 07:39:00,
2013-12-10 02:41:00,29.1,29.1,29.90,West,278,0.0,0.0,100,0.00,,,0.00,WeatherCatV1.22B15,2013-12-10 07:41:00,
2013-12-10 02:44:00,29.1,29.1,29.90,West,278,0.0,0.0,100,0.00,,,0.00,WeatherCatV1.22B15,2013-12-10 07:44:00,
2013-12-10 02:45:00,29.0,29.0,29.90,West,278,0.0,0.0,100,0.00,,,0.00,WeatherCatV1.22B15,2013-12-10 07:45:00,
2013-12-10 02:46:00,29.0,29.0,29.90,West,278,0.0,0.0,100,0.00,,,0.00,WeatherCatV1.22B15,2013-12-10 07:46:00,
2013-12-10 02:47:00,29.0,29.0,29.91,West,278,0.0,0.0,100,0.00,,,0.00,WeatherCatV1.22B15,2013-12-10 07:47:00,
2013-12-10 02:50:00,29.0,29.0,29.91,West,278,0.0,0.0,100,0.00,,,0.00,WeatherCatV1.22B15,2013-12-10 07:50:00,
2013-12-10 02:51:00,29.0,29.0,29.91,West,278,0.0,0.0,100,0.00,,,0.00,WeatherCatV1.22B15,2013-12-10 07:51:00,
2013-12-10 02:52:00,29.0,29.0,29.91,West,278,0.0,0.0,100,0.00,,,0.00,WeatherCatV1.22B15,2013-12-10 07:52:00,
2013-12-10 02:53:00,29.0,29.0,29.91,West,278,0.0,0.0,100,0.00,,,0.00,WeatherCatV1.22B15,2013-12-10 07:53:00,
2013-12-10 02:54:00,29.0,29.0,29.91,West,278,0.0,0.0,100,0.00,,,0.00,WeatherCatV1.22B15,2013-12-10 07:54:00,
2013-12-10 02:56:00,29.0,29.0,29.90,West,278,0.0,0.0,100,0.00,,,0.00,WeatherCatV1.22B15,2013-12-10 07:56:00,
2013-12-10 02:57:00,29.0,29.0,29.90,West,278,0.0,0.0,100,0.00,,,0.00,WeatherCatV1.22B15,2013-12-10 07:57:00,
2013-12-10 03:00:00,29.0,29.0,29.91,West,278,0.0,0.0,100,0.00,,,0.00,WeatherCatV1.22B15,2013-12-10 08:00:00,
2013-12-10 03:02:00,29.0,29.0,29.91,West,278,0.0,0.0,100,0.00,,,0.00,WeatherCatV1.22B15,2013-12-10 08:02:00,
2013-12-10 03:03:00,29.0,29.0,29.91,West,278,0.0,0.0,100,0.00,,,0.00,WeatherCatV1.22B15,2013-12-10 08:03:00,
2013-12-10 03:07:00,29.0,29.0,29.90,West,278,0.0,0.0,100,0.00,,,0.00,WeatherCatV1.22B15,2013-12-10 08:07:00,
2013-12-10 03:08:00,29.0,29.0,29.90,West,278,0.0,0.0,100,0.00,,,0.00,WeatherCatV1.22B15,2013-12-10 08:08:00,
2013-12-10 03:09:00,29.0,29.0,29.90,West,278,0.0,0.0,100,0.00,,,0.00,WeatherCatV1.22B15,2013-12-10 08:09:00,
2013-12-10 03:10:00,28.8,28.8,29.90,West,278,0.0,0.0,100,0.00,,,0.00,WeatherCatV1.22B15,2013-12-10 08:10:00,
2013-12-10 03:11:00,28.8,28.8,29.90,West,278,0.0,0.0,100,0.00,,,0.00,WeatherCatV1.22B15,2013-12-10 08:11:00,
2013-12-10 03:12:00,28.8,28.8,29.90,West,278,0.0,0.0,100,0.00,,,0.00,WeatherCatV1.22B15,2013-12-10 08:12:00,
2013-12-10 03:13:00,28.9,28.9,29.90,West,278,0.0,0.0,100,0.00,,,0.00,WeatherCatV1.22B15,2013-12-10 08:13:00,
2013-12-10 03:14:00,28.8,28.8,29.90,West,278,0.0,0.0,100,0.00,,,0.00,WeatherCatV1.22B15,2013-12-10 08:14:00,
2013-12-10 03:17:00,28.8,28.8,29.90,West,278,0.0,0.0,100,0.00,,,0.00,WeatherCatV1.22B15,2013-12-10 08:17:00,
2013-12-10 03:18:00,28.8,28.8,29.89,West,278,0.0,0.0,100,0.00,,,0.00,WeatherCatV1.22B15,2013-12-10 08:18:00,
2013-12-10 03:19:00,28.8,28.8,29.90,West,278,0.0,0.0,100,0.00,,,0.00,WeatherCatV1.22B15,2013-12-10 08:19:00,
2013-12-10 03:22:00,28.8,28.8,29.90,West,278,0.0,0.0,100,0.00,,,0.00,WeatherCatV1.22B15,2013-12-10 08:22:00,
2013-12-10 03:23:00,28.9,28.9,29.89,West,278,0.0,0.0,100,0.00,,,0.00,WeatherCatV1.22B15,2013-12-10 08:23:00,
2013-12-10 03:25:00,28.9,28.9,29.90,West,278,0.0,0.0,100,0.00,,,0.00,WeatherCatV1.22B15,2013-12-10 08:25:00,
2013-12-10 03:28:00,29.0,29.0,29.89,West,278,0.0,0.0,100,0.00,,,0.00,WeatherCatV1.22B15,2013-12-10 08:28:00,
2013-12-10 03:30:00,29.0,29.0,29.89,West,278,0.0,0.0,100,0.00,,,0.00,WeatherCatV1.22B15,2013-12-10 08:30:00,
2013-12-10 03:31:00,29.0,29.0,29.89,West,278,0.0,0.0,100,0.00,,,0.00,WeatherCatV1.22B15,2013-12-10 08:31:00,
2013-12-10 03:34:00,28.9,28.9,29.88,West,278,0.0,0.0,100,0.00,,,0.00,WeatherCatV1.22B15,2013-12-10 08:34:00,
2013-12-10 03:35:00,28.8,28.8,29.88,West,278,0.0,0.0,100,0.00,,,0.00,WeatherCatV1.22B15,2013-12-10 08:35:00,
2013-12-10 03:37:00,28.8,28.8,29.88,West,278,0.0,0.0,100,0.00,,,0.00,WeatherCatV1.22B15,2013-12-10 08:37:00,
2013-12-10 03:39:00,28.8,28.8,29.88,West,278,0.0,0.0,100,0.00,,,0.00,WeatherCatV1.22B15,2013-12-10 08:39:00,
2013-12-10 03:40:00,28.8,28.8,29.88,West,278,0.0,0.0,100,0.00,,,0.00,WeatherCatV1.22B15,2013-12-10 08:40:00,
2013-12-10 03:41:00,28.9,28.9,29.88,West,278,0.0,0.0,100,0.00,,,0.00,WeatherCatV1.22B15,2013-12-10 08:41:00,
2013-12-10 03:42:00,28.9,28.9,29.89,West,278,0.0,0.0,100,0.00,,,0.00,WeatherCatV1.22B15,2013-12-10 08:42:00,
2013-12-10 03:46:00,28.8,28.8,29.89,West,278,0.0,0.0,100,0.00,,,0.00,WeatherCatV1.22B15,2013-12-10 08:46:00,
2013-12-10 03:47:00,28.8,28.8,29.89,West,278,0.0,0.0,100,0.00,,,0.00,WeatherCatV1.22B15,2013-12-10 08:47:00,
2013-12-10 03:48:00,28.8,28.8,29.89,West,278,0.0,0.0,100,0.00,,,0.00,WeatherCatV1.22B15,2013-12-10 08:48:00,
2013-12-10 03:50:00,28.8,28.8,29.89,West,278,0.0,0.0,100,0.00,,,0.00,WeatherCatV1.22B15,2013-12-10 08:50:00,
2013-12-10 03:51:00,28.9,28.9,29.90,West,278,0.0,0.0,100,0.00,,,0.00,WeatherCatV1.22B15,2013-12-10 08:51:00,
2013-12-10 03:52:00,28.9,28.9,29.90,West,278,0.0,0.0,100,0.00,,,0.00,WeatherCatV1.22B15,2013-12-10 08:52:00,
2013-12-10 03:53:00,28.9,28.9,29.90,West,278,0.0,0.0,100,0.00,,,0.00,WeatherCatV1.22B15,2013-12-10 08:53:00,
2013-12-10 03:55:00,28.9,28.9,29.89,West,278,0.0,0.0,100,0.00,,,0.00,WeatherCatV1.22B15,2013-12-10 08:55:00,
2013-12-10 03:57:00,28.8,28.8,29.89,West,278,0.0,0.0,100,0.00,,,0.00,WeatherCatV1.22B15,2013-12-10 08:57:00,
2013-12-10 03:58:00,28.7,28.7,29.89,West,278,0.0,0.0,100,0.00,,,0.00,WeatherCatV1.22B15,2013-12-10 08:58:00,
2013-12-10 03:59:00,28.7,28.7,29.89,West,278,0.0,0.0,100,0.00,,,0.00,WeatherCatV1.22B15,2013-12-10 08:59:00,
2013-12-10 04:03:00,28.7,28.7,29.89,West,278,0.0,0.0,100,0.00,,,0.00,WeatherCatV1.22B15,2013-12-10 09:03:00,
2013-12-10 04:04:00,28.7,28.7,29.89,West,278,0.0,0.0,100,0.00,,,0.00,WeatherCatV1.22B15,2013-12-10 09:04:00,
2013-12-10 04:07:00,28.7,28.7,29.89,West,278,0.0,0.0,100,0.00,,,0.00,WeatherCatV1.22B15,2013-12-10 09:07:00,
2013-12-10 04:09:00,28.7,28.7,29.90,West,278,0.0,0.0,100,0.00,,,0.00,WeatherCatV1.22B15,2013-12-10 09:09:00,
2013-12-10 04:10:00,28.7,28.7,29.90,West,278,0.0,0.0,100,0.00,,,0.00,WeatherCatV1.22B15,2013-12-10 09:10:00,
2013-12-10 04:11:00,28.7,28.7,29.90,West,278,0.0,0.0,100,0.00,,,0.00,WeatherCatV1.22B15,2013-12-10 09:11:00,
2013-12-10 04:13:00,28.7,28.7,29.90,West,278,0.0,0.0,100,0.00,,,0.00,WeatherCatV1.22B15,2013-12-10 09:13:00,
2013-12-10 04:14:00,28.7,28.7,29.90,West,278,0.0,0.0,100,0.00,,,0.00,WeatherCatV1.22B15,2013-12-10 09:14:00,
2013-12-10 04:15:00,28.7,28.7,29.90,West,278,0.0,0.0,100,0.00,,,0.00,WeatherCatV1.22B15,2013-12-10 09:15:00,
2013-12-10 04:16:00,28.7,28.7,29.89,West,278,0.0,0.0,100,0.00,,,0.00,WeatherCatV1.22B15,2013-12-10 09:16:00,
2013-12-10 04:20:00,28.7,28.7,29.89,West,278,0.0,0.0,100,0.00,,,0.00,WeatherCatV1.22B15,2013-12-10 09:20:00,
2013-12-10 04:21:00,28.7,28.7,29.89,West,278,0.0,0.0,100,0.00,,,0.00,WeatherCatV1.22B15,2013-12-10 09:21:00,
2013-12-10 04:23:00,28.7,28.7,29.90,West,278,0.0,0.0,100,0.00,,,0.00,WeatherCatV1.22B15,2013-12-10 09:23:00,
2013-12-10 04:25:00,28.7,28.7,29.90,West,278,0.0,0.0,100,0.00,,,0.00,WeatherCatV1.22B15,2013-12-10 09:25:00,
2013-12-10 04:26:00,28.7,28.7,29.90,West,278,0.0,0.0,100,0.00,,,0.00,WeatherCatV1.22B15,2013-12-10 09:26:00,
2013-12-10 04:27:00,28.7,28.7,29.90,West,278,0.0,0.0,100,0.00,,,0.00,WeatherCatV1.22B15,2013-12-10 09:27:00,
2013-12-10 04:28:00,28.7,28.7,29.89,West,278,0.0,0.0,100,0.00,,,0.00,WeatherCatV1.22B15,2013-12-10 09:28:00,
2013-12-10 04:29:00,28.7,28.7,29.89,West,278,0.0,0.0,100,0.00,,,0.00,WeatherCatV1.22B15,2013-12-10 09:29:00,
2013-12-10 04:31:00,28.7,28.7,29.89,West,278,2.0,2.0,100,0.00,,,0.00,WeatherCatV1.22B15,2013-12-10 09:31:00,
2013-12-10 04:32:00,28.7,28.7,29.90,West,278,0.0,2.0,100,0.00,,,0.00,WeatherCatV1.22B15,2013-12-10 09:32:00,
2013-12-10 04:33:00,28.7,28.7,29.90,West,278,0.0,2.0,100,0.00,,,0.00,WeatherCatV1.22B15,2013-12-10 09:33:00,
2013-12-10 04:34:00,28.7,28.7,29.91,West,278,0.0,0.0,100,0.00,,,0.00,WeatherCatV1.22B15,2013-12-10 09:34:00,
2013-12-10 04:37:00,28.8,28.8,29.91,West,278,0.0,0.0,100,0.00,,,0.00,WeatherCatV1.22B15,2013-12-10 09:37:00,
2013-12-10 04:38:00,28.8,28.8,29.91,West,278,0.0,0.0,100,0.00,,,0.00,WeatherCatV1.22B15,2013-12-10 09:38:00,
2013-12-10 04:39:00,28.9,28.9,29.91,West,278,0.0,2.0,100,0.00,,,0.00,WeatherCatV1.22B15,2013-12-10 09:39:00,
2013-12-10 04:40:00,28.8,28.8,29.91,West,278,0.0,2.0,100,0.00,,,0.00,WeatherCatV1.22B15,2013-12-10 09:40:00,
2013-12-10 04:43:00,28.7,28.7,29.91,West,278,0.0,0.0,100,0.00,,,0.00,WeatherCatV1.22B15,2013-12-10 09:43:00,
2013-12-10 04:44:00,28.7,28.7,29.91,West,278,0.0,0.0,100,0.00,,,0.00,WeatherCatV1.22B15,2013-12-10 09:44:00,
2013-12-10 04:45:00,28.7,28.7,29.90,West,278,0.0,0.0,100,0.00,,,0.00,WeatherCatV1.22B15,2013-12-10 09:45:00,
2013-12-10 04:46:00,28.7,28.7,29.91,West,278,0.0,0.0,100,0.00,,,0.00,WeatherCatV1.22B15,2013-12-10 09:46:00,
2013-12-10 04:49:00,28.7,28.7,29.93,West,278,0.0,0.0,100,0.00,,,0.00,WeatherCatV1.22B15,2013-12-10 09:49:00,
2013-12-10 04:50:00,28.7,28.7,29.93,West,278,0.0,0.0,100,0.00,,,0.00,WeatherCatV1.22B15,2013-12-10 09:50:00,
2013-12-10 04:51:00,28.7,28.7,29.92,West,278,0.0,0.0,100,0.00,,,0.00,WeatherCatV1.22B15,2013-12-10 09:51:00,
2013-12-10 04:52:00,28.7,28.7,29.93,West,278,0.0,0.0,100,0.00,,,0.00,WeatherCatV1.22B15,2013-12-10 09:52:00,
2013-12-10 04:56:00,28.5,28.5,29.93,West,278,0.0,0.0,100,0.00,,,0.00,WeatherCatV1.22B15,2013-12-10 09:56:00,
2013-12-10 04:57:00,28.5,28.5,29.93,West,278,0.0,0.0,100,0.00,,,0.00,WeatherCatV1.22B15,2013-12-10 09:57:00,
2013-12-10 04:59:00,28.5,28.5,29.92,West,278,0.0,0.0,100,0.00,,,0.00,WeatherCatV1.22B15,2013-12-10 09:59:00,
2013-12-10 05:01:00,28.5,28.5,29.91,West,278,0.0,0.0,100,0.00,,,0.00,WeatherCatV1.22B15,2013-12-10 10:01:00,
2013-12-10 05:02:00,28.5,28.5,29.92,West,278,0.0,0.0,100,0.00,,,0.00,WeatherCatV1.22B15,2013-12-10 10:02:00,
2013-12-10 05:04:00,28.5,28.5,29.92,West,278,0.0,0.0,100,0.00,,,0.00,WeatherCatV1.22B15,2013-12-10 10:04:00,
2013-12-10 05:06:00,28.5,28.5,29.93,West,278,0.0,0.0,100,0.00,,,0.00,WeatherCatV1.22B15,2013-12-10 10:06:00,
2013-12-10 05:08:00,28.6,28.6,29.92,West,278,0.0,0.0,100,0.00,,,0.00,WeatherCatV1.22B15,2013-12-10 10:08:00,
2013-12-10 05:10:00,28.7,28.7,29.93,West,278,0.0,0.0,100,0.00,,,0.00,WeatherCatV1.22B15,2013-12-10 10:10:00,
2013-12-10 05:11:00,28.7,28.7,29.93,West,278,0.0,0.0,100,0.00,,,0.00,WeatherCatV1.22B15,2013-12-10 10:11:00,
2013-12-10 05:12:00,28.7,28.7,29.93,West,278,0.0,0.0,100,0.00,,,0.00,WeatherCatV1.22B15,2013-12-10 10:12:00,
2013-12-10 05:13:00,28.9,28.9,29.93,West,278,0.0,0.0,100,0.00,,,0.00,WeatherCatV1.22B15,2013-12-10 10:13:00,
2013-12-10 05:14:00,28.8,28.8,29.93,West,278,0.0,0.0,100,0.00,,,0.00,WeatherCatV1.22B15,2013-12-10 10:14:00,
2013-12-10 05:16:00,28.8,28.8,29.94,West,278,0.0,0.0,100,0.00,,,0.00,WeatherCatV1.22B15,2013-12-10 10:16:00,
2013-12-10 05:17:00,28.8,28.8,29.94,West,278,0.0,0.0,100,0.00,,,0.00,WeatherCatV1.22B15,2013-12-10 10:17:00,
2013-12-10 05:19:00,28.8,28.8,29.93,West,278,0.0,0.0,100,0.00,,,0.00,WeatherCatV1.22B15,2013-12-10 10:19:00,
2013-12-10 05:20:00,28.8,28.8,29.94,West,278,0.0,0.0,100,0.00,,,0.00,WeatherCatV1.22B15,2013-12-10 10:20:00,
2013-12-10 05:21:00,28.9,28.9,29.95,West,278,0.0,0.0,100,0.00,,,0.00,WeatherCatV1.22B15,2013-12-10 10:21:00,
2013-12-10 05:22:00,28.9,28.9,29.95,West,278,0.0,0.0,100,0.00,,,0.00,WeatherCatV1.22B15,2013-12-10 10:22:00,
2013-12-10 05:24:00,28.8,28.8,29.95,West,278,0.0,0.0,100,0.00,,,0.00,WeatherCatV1.22B15,2013-12-10 10:24:00,
2013-12-10 05:25:00,28.9,28.9,29.95,West,278,0.0,0.0,100,0.00,,,0.00,WeatherCatV1.22B15,2013-12-10 10:25:00,
2013-12-10 05:27:00,28.9,28.9,29.94,West,278,0.0,0.0,100,0.00,,,0.00,WeatherCatV1.22B15,2013-12-10 10:27:00,
2013-12-10 05:29:00,29.0,29.0,29.94,West,278,0.0,0.0,100,0.00,,,0.00,WeatherCatV1.22B15,2013-12-10 10:29:00,
2013-12-10 05:30:00,29.0,29.0,29.93,West,278,0.0,0.0,100,0.00,,,0.00,WeatherCatV1.22B15,2013-12-10 10:30:00,
2013-12-10 05:31:00,28.9,28.9,29.93,West,278,0.0,0.0,100,0.00,,,0.00,WeatherCatV1.22B15,2013-12-10 10:31:00,
2013-12-10 05:32:00,29.0,29.0,29.94,West,278,0.0,0.0,100,0.00,,,0.00,WeatherCatV1.22B15,2013-12-10 10:32:00,
2013-12-10 05:33:00,29.0,29.0,29.93,West,278,0.0,0.0,100,0.00,,,0.00,WeatherCatV1.22B15,2013-12-10 10:33:00,
2013-12-10 05:34:00,29.0,29.0,29.92,West,278,0.0,0.0,100,0.00,,,0.00,WeatherCatV1.22B15,2013-12-10 10:34:00,
2013-12-10 05:35:00,29.0,29.0,29.92,West,278,0.0,0.0,100,0.00,,,0.00,WeatherCatV1.22B15,2013-12-10 10:35:00,
2013-12-10 05:36:00,29.0,29.0,29.92,West,278,0.0,0.0,100,0.00,,,0.00,WeatherCatV1.22B15,2013-12-10 10:36:00,
2013-12-10 05:37:00,29.0,29.0,29.92,West,278,0.0,0.0,100,0.00,,,0.00,WeatherCatV1.22B15,2013-12-10 10:37:00,
2013-12-10 05:38:00,29.1,29.1,29.92,West,278,0.0,0.0,100,0.00,,,0.00,WeatherCatV1.22B15,2013-12-10 10:38:00,
2013-12-10 05:39:00,29.1,29.1,29.92,West,278,0.0,0.0,100,0.00,,,0.00,WeatherCatV1.22B15,2013-12-10 10:39:00,
2013-12-10 05:40:00,29.1,29.1,29.92,West,278,0.0,0.0,100,0.00,,,0.00,WeatherCatV1.22B15,2013-12-10 10:40:00,
2013-12-10 05:41:00,29.3,29.3,29.92,West,278,0.0,0.0,100,0.00,,,0.00,WeatherCatV1.22B15,2013-12-10 10:41:00,
2013-12-10 05:43:00,29.3,29.3,29.93,West,278,0.0,0.0,100,0.00,,,0.00,WeatherCatV1.22B15,2013-12-10 10:43:00,
2013-12-10 05:46:00,29.4,29.4,29.92,West,278,0.0,0.0,100,0.00,,,0.00,WeatherCatV1.22B15,2013-12-10 10:46:00,
2013-12-10 05:47:00,29.4,29.4,29.93,West,278,0.0,0.0,100,0.00,,,0.00,WeatherCatV1.22B15,2013-12-10 10:47:00,
2013-12-10 05:48:00,29.4,29.4,29.92,West,278,0.0,0.0,100,0.00,,,0.00,WeatherCatV1.22B15,2013-12-10 10:48:00,
2013-12-10 05:49:00,29.4,29.4,29.93,West,278,0.0,0.0,100,0.00,,,0.00,WeatherCatV1.22B15,2013-12-10 10:49:00,
2013-12-10 05:51:00,29.4,29.4,29.92,West,278,0.0,0.0,100,0.00,,,0.00,WeatherCatV1.22B15,2013-12-10 10:51:00,
2013-12-10 05:52:00,29.4,29.4,29.93,West,278,0.0,0.0,100,0.00,,,0.00,WeatherCatV1.22B15,2013-12-10 10:52:00,
2013-12-10 05:54:00,29.4,29.4,29.92,West,278,0.0,0.0,100,0.00,,,0.00,WeatherCatV1.22B15,2013-12-10 10:54:00,
2013-12-10 05:57:00,29.4,29.4,29.92,West,278,0.0,0.0,100,0.00,,,0.00,WeatherCatV1.22B15,2013-12-10 10:57:00,
2013-12-10 05:58:00,29.4,29.4,29.93,West,278,0.0,0.0,100,0.00,,,0.00,WeatherCatV1.22B15,2013-12-10 10:58:00,
2013-12-10 05:59:00,29.4,29.4,29.92,West,278,0.0,0.0,100,0.00,,,0.00,WeatherCatV1.22B15,2013-12-10 10:59:00,
2013-12-10 06:02:00,29.4,29.4,29.92,West,278,0.0,0.0,100,0.00,,,0.00,WeatherCatV1.22B15,2013-12-10 11:02:00,
2013-12-10 06:03:00,29.4,29.4,29.92,West,278,0.0,0.0,100,0.00,,,0.00,WeatherCatV1.22B15,2013-12-10 11:03:00,
2013-12-10 06:04:00,29.4,29.4,29.92,West,278,0.0,0.0,100,0.00,,,0.00,WeatherCatV1.22B15,2013-12-10 11:04:00,
2013-12-10 06:09:00,29.4,29.4,29.93,West,278,0.0,0.0,100,0.00,,,0.00,WeatherCatV1.22B15,2013-12-10 11:09:00,
2013-12-10 06:10:00,29.4,29.4,29.92,West,278,0.0,0.0,100,0.00,,,0.00,WeatherCatV1.22B15,2013-12-10 11:10:00,
2013-12-10 06:11:00,29.4,29.4,29.93,West,278,0.0,0.0,100,0.00,,,0.00,WeatherCatV1.22B15,2013-12-10 11:11:00,
2013-12-10 06:14:00,29.6,29.6,29.92,West,278,0.0,0.0,100,0.00,,,0.00,WeatherCatV1.22B15,2013-12-10 11:14:00,
2013-12-10 06:15:00,29.6,29.6,29.92,West,278,0.0,0.0,100,0.00,,,0.00,WeatherCatV1.22B15,2013-12-10 11:15:00,
2013-12-10 06:17:00,29.5,29.5,29.91,West,278,0.0,0.0,100,0.00,,,0.00,WeatherCatV1.22B15,2013-12-10 11:17:00,
2013-12-10 06:20:00,29.6,29.6,29.92,West,278,0.0,0.0,100,0.00,,,0.00,WeatherCatV1.22B15,2013-12-10 11:20:00,
2013-12-10 06:21:00,29.6,29.6,29.91,West,278,0.0,0.0,100,0.00,,,0.00,WeatherCatV1.22B15,2013-12-10 11:21:00,
2013-12-10 06:23:00,29.6,29.6,29.91,West,278,0.0,0.0,100,0.00,,,0.00,WeatherCatV1.22B15,2013-12-10 11:23:00,
2013-12-10 06:26:00,29.6,29.6,29.90,West,278,0.0,0.0,100,0.00,,,0.00,WeatherCatV1.22B15,2013-12-10 11:26:00,
2013-12-10 06:27:00,29.6,29.6,29.91,West,278,0.0,0.0,100,0.00,,,0.00,WeatherCatV1.22B15,2013-12-10 11:27:00,
2013-12-10 06:29:00,29.6,29.6,29.91,West,278,0.0,0.0,100,0.00,,,0.00,WeatherCatV1.22B15,2013-12-10 11:29:00,
2013-12-10 06:31:00,29.6,29.6,29.90,West,278,0.0,0.0,100,0.00,,,0.00,WeatherCatV1.22B15,2013-12-10 11:31:00,
2013-12-10 06:32:00,29.6,29.6,29.90,West,278,0.0,0.0,100,0.00,,,0.00,WeatherCatV1.22B15,2013-12-10 11:32:00,
2013-12-10 06:33:00,29.6,29.6,29.90,West,278,0.0,0.0,100,0.00,,,0.00,WeatherCatV1.22B15,2013-12-10 11:33:00,
2013-12-10 06:34:00,29.6,29.6,29.90,West,278,0.0,0.0,100,0.00,,,0.00,WeatherCatV1.22B15,2013-12-10 11:34:00,
2013-12-10 06:37:00,29.6,29.6,29.90,West,278,0.0,0.0,100,0.00,,,0.00,WeatherCatV1.22B15,2013-12-10 11:37:00,
2013-12-10 06:38:00,29.6,29.6,29.89,West,278,0.0,0.0,100,0.00,,,0.00,WeatherCatV1.22B15,2013-12-10 11:38:00,
2013-12-10 06:39:00,29.5,29.5,29.88,West,278,0.0,0.0,100,0.00,,,0.00,WeatherCatV1.22B15,2013-12-10 11:39:00,
2013-12-10 06:40:00,29.5,29.5,29.89,West,278,0.0,0.0,100,0.00,,,0.00,WeatherCatV1.22B15,2013-12-10 11:40:00,
2013-12-10 06:44:00,29.6,29.6,29.89,West,278,0.0,0.0,100,0.00,,,0.00,WeatherCatV1.22B15,2013-12-10 11:44:00,
2013-12-10 06:45:00,29.6,29.6,29.88,West,278,0.0,0.0,100,0.00,,,0.00,WeatherCatV1.22B15,2013-12-10 11:45:00,
2013-12-10 06:47:00,29.6,29.6,29.89,West,278,0.0,0.0,100,0.00,,,0.00,WeatherCatV1.22B15,2013-12-10 11:47:00,
2013-12-10 06:49:00,29.6,29.6,29.90,West,278,0.0,0.0,100,0.00,,,0.00,WeatherCatV1.22B15,2013-12-10 11:49:00,
2013-12-10 06:50:00,29.4,29.4,29.91,West,278,0.0,0.0,100,0.00,,,0.00,WeatherCatV1.22B15,2013-12-10 11:50:00,
2013-12-10 06:51:00,29.4,29.4,29.91,West,278,0.0,0.0,100,0.00,,,0.00,WeatherCatV1.22B15,2013-12-10 11:51:00,
2013-12-10 06:52:00,29.4,29.4,29.92,West,278,0.0,0.0,100,0.00,,,0.00,WeatherCatV1.22B15,2013-12-10 11:52:00,
2013-12-10 06:53:00,29.4,29.4,29.91,West,278,0.0,0.0,100,0.00,,,0.00,WeatherCatV1.22B15,2013-12-10 11:53:00,
2013-12-10 06:55:00,29.4,29.4,29.92,West,278,0.0,0.0,100,0.00,,,0.00,WeatherCatV1.22B15,2013-12-10 11:55:00,
2013-12-10 06:56:00,29.4,29.4,29.92,West,278,0.0,0.0,100,0.00,,,0.00,WeatherCatV1.22B15,2013-12-10 11:56:00,
2013-12-10 06:57:00,29.4,29.4,29.92,West,278,0.0,0.0,100,0.00,,,0.00,WeatherCatV1.22B15,2013-12-10 11:57:00,
2013-12-10 06:58:00,29.4,29.4,29.92,West,278,0.0,0.0,100,0.00,,,0.00,WeatherCatV1.22B15,2013-12-10 11:58:00,
2013-12-10 07:02:00,29.4,29.4,29.91,West,278,0.0,0.0,100,0.00,,,0.00,WeatherCatV1.22B15,2013-12-10 12:02:00,
2013-12-10 07:03:00,29.4,29.4,29.92,West,278,0.0,0.0,100,0.00,,,0.00,WeatherCatV1.22B15,2013-12-10 12:03:00,
2013-12-10 07:07:00,29.5,29.5,29.92,West,278,0.0,0.0,100,0.00,,,0.00,WeatherCatV1.22B15,2013-12-10 12:07:00,
2013-12-10 07:08:00,29.6,29.6,29.93,West,278,0.0,0.0,100,0.00,,,0.00,WeatherCatV1.22B15,2013-12-10 12:08:00,
2013-12-10 07:09:00,29.5,29.5,29.93,West,278,0.0,0.0,100,0.00,,,0.00,WeatherCatV1.22B15,2013-12-10 12:09:00,
2013-12-10 07:10:00,29.7,29.7,29.93,West,278,0.0,0.0,100,0.00,,,0.00,WeatherCatV1.22B15,2013-12-10 12:10:00,
2013-12-10 07:13:00,29.8,29.8,29.93,West,278,0.0,0.0,100,0.00,,,0.00,WeatherCatV1.22B15,2013-12-10 12:13:00,
2013-12-10 07:15:00,29.7,29.7,29.92,West,278,0.0,0.0,100,0.00,,,0.00,WeatherCatV1.22B15,2013-12-10 12:15:00,
2013-12-10 07:16:00,29.7,29.7,29.93,West,278,0.0,0.0,100,0.00,,,0.00,WeatherCatV1.22B15,2013-12-10 12:16:00,
2013-12-10 07:17:00,29.8,29.8,29.92,West,278,0.0,0.0,100,0.00,,,0.00,WeatherCatV1.22B15,2013-12-10 12:17:00,
2013-12-10 07:18:00,29.7,29.7,29.92,West,278,0.0,0.0,100,0.00,,,0.00,WeatherCatV1.22B15,2013-12-10 12:18:00,
2013-12-10 07:21:00,29.7,29.7,29.93,West,278,0.0,0.0,100,0.00,,,0.00,WeatherCatV1.22B15,2013-12-10 12:21:00,
2013-12-10 07:22:00,29.7,29.7,29.93,West,278,0.0,0.0,100,0.00,,,0.00,WeatherCatV1.22B15,2013-12-10 12:22:00,
2013-12-10 07:24:00,29.8,29.8,29.94,West,278,0.0,0.0,100,0.00,,,0.00,WeatherCatV1.22B15,2013-12-10 12:24:00,
2013-12-10 07:27:00,29.9,29.9,29.93,West,278,0.0,0.0,100,0.00,,,0.00,WeatherCatV1.22B15,2013-12-10 12:27:00,
2013-12-10 07:29:00,29.9,29.9,29.94,West,278,0.0,0.0,100,0.00,,,0.00,WeatherCatV1.22B15,2013-12-10 12:29:00,
2013-12-10 07:30:00,29.9,29.9,29.94,West,278,0.0,0.0,100,0.00,,,0.00,WeatherCatV1.22B15,2013-12-10 12:30:00,
2013-12-10 07:34:00,30.1,30.1,29.94,West,278,0.0,0.0,100,0.00,,,0.00,WeatherCatV1.22B15,2013-12-10 12:34:00,
2013-12-10 07:35:00,30.0,30.0,29.94,West,278,0.0,0.0,100,0.00,,,0.00,WeatherCatV1.22B15,2013-12-10 12:35:00,
2013-12-10 07:36:00,30.0,30.0,29.94,West,278,0.0,0.0,100,0.00,,,0.00,WeatherCatV1.22B15,2013-12-10 12:36:00,
2013-12-10 07:37:00,30.1,30.1,29.94,West,278,0.0,0.0,100,0.00,,,0.00,WeatherCatV1.22B15,2013-12-10 12:37:00,
2013-12-10 07:39:00,30.2,30.2,29.94,West,278,0.0,0.0,100,0.00,,,0.00,WeatherCatV1.22B15,2013-12-10 12:39:00,
2013-12-10 07:40:00,30.2,30.2,29.93,West,278,0.0,0.0,100,0.00,,,0.00,WeatherCatV1.22B15,2013-12-10 12:40:00,
2013-12-10 07:41:00,30.2,30.2,29.93,West,278,0.0,0.0,100,0.00,,,0.00,WeatherCatV1.22B15,2013-12-10 12:41:00,
2013-12-10 07:43:00,30.2,30.2,29.93,West,278,0.0,0.0,100,0.00,,,0.00,WeatherCatV1.22B15,2013-12-10 12:43:00,
2013-12-10 07:44:00,30.2,30.2,29.92,West,278,0.0,0.0,100,0.00,,,0.00,WeatherCatV1.22B15,2013-12-10 12:44:00,
2013-12-10 07:45:00,30.2,30.2,29.92,West,278,0.0,0.0,100,0.00,,,0.00,WeatherCatV1.22B15,2013-12-10 12:45:00,
2013-12-10 07:46:00,30.2,30.2,29.93,West,278,0.0,0.0,100,0.00,,,0.00,WeatherCatV1.22B15,2013-12-10 12:46:00,
2013-12-10 07:47:00,30.2,30.2,29.93,West,278,0.0,0.0,100,0.00,,,0.00,WeatherCatV1.22B15,2013-12-10 12:47:00,
2013-12-10 07:50:00,30.2,30.2,29.93,West,278,0.0,0.0,100,0.00,,,0.00,WeatherCatV1.22B15,2013-12-10 12:50:00,
2013-12-10 07:51:00,30.2,30.2,29.93,West,278,0.0,0.0,100,0.00,,,0.00,WeatherCatV1.22B15,2013-12-10 12:51:00,
2013-12-10 07:52:00,30.2,30.2,29.93,West,278,0.0,0.0,100,0.00,,,0.00,WeatherCatV1.22B15,2013-12-10 12:52:00,
2013-12-10 07:53:00,30.2,30.2,29.93,West,278,0.0,0.0,100,0.00,,,0.00,WeatherCatV1.22B15,2013-12-10 12:53:00,
2013-12-10 07:56:00,30.2,30.2,29.92,West,278,0.0,0.0,100,0.00,,,0.00,WeatherCatV1.22B15,2013-12-10 12:56:00,
2013-12-10 07:57:00,30.2,30.2,29.92,West,278,0.0,0.0,100,0.00,,,0.00,WeatherCatV1.22B15,2013-12-10 12:57:00,
2013-12-10 07:58:00,30.2,30.2,29.92,West,278,0.0,0.0,100,0.00,,,0.00,WeatherCatV1.22B15,2013-12-10 12:58:00,
2013-12-10 08:01:00,30.3,30.3,29.92,West,278,0.0,0.0,100,0.00,,,0.00,WeatherCatV1.22B15,2013-12-10 13:01:00,
2013-12-10 08:02:00,30.3,30.3,29.92,West,278,0.0,0.0,100,0.00,,,0.00,WeatherCatV1.22B15,2013-12-10 13:02:00,
2013-12-10 08:03:00,30.3,30.3,29.92,West,278,0.0,0.0,100,0.00,,,0.00,WeatherCatV1.22B15,2013-12-10 13:03:00,
2013-12-10 08:06:00,30.3,30.3,29.91,West,278,0.0,0.0,100,0.00,,,0.00,WeatherCatV1.22B15,2013-12-10 13:06:00,
2013-12-10 08:08:00,30.3,30.3,29.90,West,278,0.0,0.0,100,0.00,,,0.00,WeatherCatV1.22B15,2013-12-10 13:08:00,
2013-12-10 08:09:00,30.3,30.3,29.90,West,278,0.0,0.0,100,0.00,,,0.00,WeatherCatV1.22B15,2013-12-10 13:09:00,
2013-12-10 08:11:00,30.3,30.3,29.90,West,278,0.0,0.0,100,0.00,,,0.00,WeatherCatV1.22B15,2013-12-10 13:11:00,
2013-12-10 08:14:00,30.5,30.5,29.90,West,278,0.0,0.0,100,0.00,,,0.00,WeatherCatV1.22B15,2013-12-10 13:14:00,
2013-12-10 08:15:00,30.5,30.5,29.90,West,278,0.0,0.0,100,0.00,,,0.00,WeatherCatV1.22B15,2013-12-10 13:15:00,
2013-12-10 08:16:00,30.5,30.5,29.91,West,278,0.0,0.0,100,0.00,,,0.00,WeatherCatV1.22B15,2013-12-10 13:16:00,
2013-12-10 08:17:00,30.5,30.5,29.90,West,278,0.0,0.0,100,0.00,,,0.00,WeatherCatV1.22B15,2013-12-10 13:17:00,
2013-12-10 08:19:00,30.5,30.5,29.91,West,278,0.0,0.0,100,0.00,,,0.00,WeatherCatV1.22B15,2013-12-10 13:19:00,
2013-12-10 08:20:00,30.5,30.5,29.91,West,278,0.0,0.0,100,0.00,,,0.00,WeatherCatV1.22B15,2013-12-10 13:20:00,
2013-12-10 08:21:00,30.5,30.5,29.91,West,278,0.0,0.0,100,0.00,,,0.00,WeatherCatV1.22B15,2013-12-10 13:21:00,
2013-12-10 08:22:00,30.5,30.5,29.91,West,278,0.0,0.0,100,0.00,,,0.00,WeatherCatV1.22B15,2013-12-10 13:22:00,
2013-12-10 08:23:00,30.5,30.5,29.90,West,278,0.0,0.0,100,0.00,,,0.00,WeatherCatV1.22B15,2013-12-10 13:23:00,
2013-12-10 08:24:00,30.5,30.5,29.90,West,278,0.0,0.0,100,0.00,,,0.00,WeatherCatV1.22B15,2013-12-10 13:24:00,
2013-12-10 08:25:00,30.5,30.5,29.90,West,278,0.0,0.0,100,0.00,,,0.00,WeatherCatV1.22B15,2013-12-10 13:25:00,
2013-12-10 08:26:00,30.6,30.6,29.90,West,278,0.0,0.0,100,0.00,,,0.00,WeatherCatV1.22B15,2013-12-10 13:26:00,
2013-12-10 08:27:00,30.6,30.6,29.90,West,278,0.0,0.0,100,0.00,,,0.00,WeatherCatV1.22B15,2013-12-10 13:27:00,
2013-12-10 08:29:00,30.6,30.6,29.91,West,278,0.0,0.0,100,0.00,,,0.00,WeatherCatV1.22B15,2013-12-10 13:29:00,
2013-12-10 08:32:00,30.6,30.6,29.91,West,278,0.0,0.0,100,0.00,,,0.00,WeatherCatV1.22B15,2013-12-10 13:32:00,
2013-12-10 08:33:00,30.6,30.6,29.91,West,278,0.0,0.0,100,0.00,,,0.00,WeatherCatV1.22B15,2013-12-10 13:33:00,
2013-12-10 08:36:00,30.8,30.8,29.91,West,278,0.0,0.0,100,0.00,,,0.00,WeatherCatV1.22B15,2013-12-10 13:36:00,
2013-12-10 08:37:00,30.7,30.7,29.92,West,278,0.0,0.0,100,0.00,,,0.00,WeatherCatV1.22B15,2013-12-10 13:37:00,
2013-12-10 08:38:00,30.8,30.8,29.92,West,278,0.0,0.0,100,0.00,,,0.00,WeatherCatV1.22B15,2013-12-10 13:38:00,
2013-12-10 08:39:00,30.8,30.8,29.92,West,278,0.0,0.0,100,0.00,,,0.00,WeatherCatV1.22B15,2013-12-10 13:39:00,
2013-12-10 08:42:00,30.8,30.8,29.93,West,278,0.0,0.0,100,0.00,,,0.00,WeatherCatV1.22B15,2013-12-10 13:42:00,
2013-12-10 08:43:00,30.8,30.8,29.93,West,278,0.0,0.0,100,0.00,,,0.00,WeatherCatV1.22B15,2013-12-10 13:43:00,
2013-12-10 08:44:00,30.8,30.8,29.93,West,278,0.0,0.0,100,0.00,,,0.00,WeatherCatV1.22B15,2013-12-10 13:44:00,
2013-12-10 08:45:00,30.8,30.8,29.93,West,278,0.0,0.0,100,0.00,,,0.00,WeatherCatV1.22B15,2013-12-10 13:45:00,
2013-12-10 08:47:00,30.8,30.8,29.93,West,278,0.0,0.0,100,0.00,,,0.00,WeatherCatV1.22B15,2013-12-10 13:47:00,
2013-12-10 08:48:00,30.8,30.8,29.93,West,278,0.0,0.0,100,0.00,,,0.00,WeatherCatV1.22B15,2013-12-10 13:48:00,
2013-12-10 08:50:00,30.9,30.9,29.93,West,278,0.0,0.0,100,0.00,,,0.00,WeatherCatV1.22B15,2013-12-10 13:50:00,
2013-12-10 08:51:00,30.9,30.9,29.93,West,278,0.0,0.0,100,0.00,,,0.00,WeatherCatV1.22B15,2013-12-10 13:51:00,
2013-12-10 08:52:00,30.9,30.9,29.93,West,278,0.0,0.0,100,0.00,,,0.00,WeatherCatV1.22B15,2013-12-10 13:52:00,
2013-12-10 08:53:00,30.9,30.9,29.93,West,278,0.0,0.0,100,0.00,,,0.00,WeatherCatV1.22B15,2013-12-10 13:53:00,
2013-12-10 08:55:00,31.0,31.0,29.93,West,278,0.0,0.0,100,0.00,,,0.00,WeatherCatV1.22B15,2013-12-10 13:55:00,
2013-12-10 08:56:00,30.9,30.9,29.94,West,278,0.0,0.0,100,0.00,,,0.00,WeatherCatV1.22B15,2013-12-10 13:56:00,
2013-12-10 08:57:00,30.9,30.9,29.94,West,278,0.0,0.0,100,0.00,,,0.00,WeatherCatV1.22B15,2013-12-10 13:57:00,
2013-12-10 08:59:00,31.0,31.0,29.93,West,278,0.0,0.0,100,0.00,,,0.00,WeatherCatV1.22B15,2013-12-10 13:59:00,
2013-12-10 09:00:00,31.1,31.1,29.93,West,278,0.0,0.0,100,0.00,,,0.00,WeatherCatV1.22B15,2013-12-10 14:00:00,
2013-12-10 09:01:00,31.1,31.1,29.93,West,278,0.0,0.0,100,0.00,,,0.00,WeatherCatV1.22B15,2013-12-10 14:01:00,
2013-12-10 09:04:00,31.1,31.1,29.93,West,278,0.0,0.0,100,0.00,,,0.00,WeatherCatV1.22B15,2013-12-10 14:04:00,
2013-12-10 09:05:00,31.1,31.1,29.93,West,278,0.0,0.0,100,0.00,,,0.00,WeatherCatV1.22B15,2013-12-10 14:05:00,
2013-12-10 09:06:00,31.1,31.1,29.92,West,278,0.0,0.0,100,0.00,,,0.00,WeatherCatV1.22B15,2013-12-10 14:06:00,
2013-12-10 09:07:00,31.0,31.0,29.93,West,278,0.0,0.0,100,0.00,,,0.00,WeatherCatV1.22B15,2013-12-10 14:07:00,
2013-12-10 09:10:00,31.2,31.2,29.92,West,278,0.0,0.0,100,0.00,,,0.00,WeatherCatV1.22B15,2013-12-10 14:10:00,
2013-12-10 09:11:00,31.2,31.2,29.92,West,278,0.0,0.0,100,0.00,,,0.00,WeatherCatV1.22B15,2013-12-10 14:11:00,
2013-12-10 09:12:00,31.2,31.2,29.92,West,278,0.0,0.0,100,0.00,,,0.00,WeatherCatV1.22B15,2013-12-10 14:12:00,
2013-12-10 09:13:00,31.2,31.2,29.91,West,278,0.0,0.0,100,0.00,,,0.00,WeatherCatV1.22B15,2013-12-10 14:13:00,
2013-12-10 09:15:00,31.2,31.2,29.91,West,278,0.0,0.0,100,0.00,,,0.00,WeatherCatV1.22B15,2013-12-10 14:15:00,
2013-12-10 09:17:00,31.2,31.2,29.91,West,278,0.0,0.0,100,0.00,,,0.00,WeatherCatV1.22B15,2013-12-10 14:17:00,
2013-12-10 09:18:00,31.2,31.2,29.90,West,278,0.0,0.0,100,0.00,,,0.00,WeatherCatV1.22B15,2013-12-10 14:18:00,
2013-12-10 09:19:00,31.2,31.2,29.90,West,278,0.0,0.0,100,0.00,,,0.00,WeatherCatV1.22B15,2013-12-10 14:19:00,
2013-12-10 09:21:00,31.4,31.4,29.91,West,278,0.0,0.0,100,0.00,,,0.00,WeatherCatV1.22B15,2013-12-10 14:21:00,
2013-12-10 09:22:00,31.4,31.4,29.91,West,278,0.0,0.0,100,0.00,,,0.00,WeatherCatV1.22B15,2013-12-10 14:22:00,
2013-12-10 09:23:00,31.4,31.4,29.90,West,278,0.0,0.0,100,0.00,,,0.00,WeatherCatV1.22B15,2013-12-10 14:23:00,
2013-12-10 09:24:00,31.3,31.3,29.91,West,278,0.0,0.0,100,0.00,,,0.00,WeatherCatV1.22B15,2013-12-10 14:24:00,
2013-12-10 09:25:00,31.3,31.3,29.90,West,278,0.0,0.0,100,0.00,,,0.00,WeatherCatV1.22B15,2013-12-10 14:25:00,
2013-12-10 09:26:00,31.3,31.3,29.91,West,278,0.0,0.0,100,0.00,,,0.00,WeatherCatV1.22B15,2013-12-10 14:26:00,
2013-12-10 09:27:00,31.3,31.3,29.90,West,278,0.0,0.0,100,0.00,,,0.00,WeatherCatV1.22B15,2013-12-10 14:27:00,
2013-12-10 09:28:00,31.3,31.3,29.91,West,278,0.0,0.0,100,0.00,,,0.00,WeatherCatV1.22B15,2013-12-10 14:28:00,
2013-12-10 09:29:00,31.4,31.4,29.91,West,278,0.0,0.0,100,0.00,,,0.00,WeatherCatV1.22B15,2013-12-10 14:29:00,
2013-12-10 09:31:00,31.4,31.4,29.91,West,278,0.0,0.0,100,0.00,,,0.00,WeatherCatV1.22B15,2013-12-10 14:31:00,
2013-12-10 09:32:00,31.4,31.4,29.90,West,278,0.0,0.0,100,0.00,,,0.00,WeatherCatV1.22B15,2013-12-10 14:32:00,
2013-12-10 09:33:00,31.4,31.4,29.90,West,278,0.0,0.0,100,0.00,,,0.00,WeatherCatV1.22B15,2013-12-10 14:33:00,
2013-12-10 09:34:00,31.3,31.3,29.90,West,278,0.0,0.0,100,0.00,,,0.00,WeatherCatV1.22B15,2013-12-10 14:34:00,
2013-12-10 09:35:00,31.3,31.3,29.90,West,278,0.0,0.0,100,0.00,,,0.00,WeatherCatV1.22B15,2013-12-10 14:35:00,
2013-12-10 09:36:00,31.3,31.3,29.90,West,278,0.0,0.0,100,0.00,,,0.00,WeatherCatV1.22B15,2013-12-10 14:36:00,
2013-12-10 09:37:00,31.3,31.3,29.90,West,278,0.0,0.0,100,0.00,,,0.00,WeatherCatV1.22B15,2013-12-10 14:37:00,
2013-12-10 09:39:00,31.5,31.5,29.90,West,278,0.0,0.0,100,0.00,,,0.00,WeatherCatV1.22B15,2013-12-10 14:39:00,
2013-12-10 09:40:00,31.5,31.5,29.89,West,278,0.0,0.0,100,0.00,,,0.00,WeatherCatV1.22B15,2013-12-10 14:40:00,
2013-12-10 09:42:00,31.5,31.5,29.90,West,278,0.0,0.0,100,0.00,,,0.00,WeatherCatV1.22B15,2013-12-10 14:42:00,
2013-12-10 09:44:00,31.5,31.5,29.90,West,278,0.0,0.0,100,0.00,,,0.00,WeatherCatV1.22B15,2013-12-10 14:44:00,
2013-12-10 09:45:00,31.5,31.5,29.90,West,278,0.0,0.0,100,0.00,,,0.00,WeatherCatV1.22B15,2013-12-10 14:45:00,
2013-12-10 09:47:00,31.5,31.5,29.91,West,278,0.0,0.0,100,0.00,,,0.00,WeatherCatV1.22B15,2013-12-10 14:47:00,
2013-12-10 09:49:00,31.6,31.6,29.91,West,278,0.0,0.0,100,0.00,,,0.00,WeatherCatV1.22B15,2013-12-10 14:49:00,
2013-12-10 09:50:00,31.7,31.7,29.91,West,278,0.0,0.0,100,0.00,,,0.00,WeatherCatV1.22B15,2013-12-10 14:50:00,
2013-12-10 09:51:00,31.6,31.6,29.92,West,278,0.0,0.0,100,0.00,,,0.00,WeatherCatV1.22B15,2013-12-10 14:51:00,
2013-12-10 09:54:00,31.7,31.7,29.91,West,278,0.0,0.0,100,0.00,,,0.00,WeatherCatV1.22B15,2013-12-10 14:54:00,
2013-12-10 09:55:00,31.6,31.6,29.91,West,278,0.0,0.0,100,0.00,,,0.00,WeatherCatV1.22B15,2013-12-10 14:55:00,
2013-12-10 09:56:00,31.6,31.6,29.91,West,278,0.0,0.0,100,0.00,,,0.00,WeatherCatV1.22B15,2013-12-10 14:56:00,
2013-12-10 09:57:00,31.7,31.7,29.91,West,278,0.0,0.0,100,0.00,,,0.00,WeatherCatV1.22B15,2013-12-10 14:57:00,
2013-12-10 10:00:00,31.6,31.6,29.91,West,278,0.0,0.0,100,0.00,,,0.00,WeatherCatV1.22B15,2013-12-10 15:00:00,
2013-12-10 10:01:00,31.7,31.7,29.91,West,278,0.0,0.0,100,0.00,,,0.00,WeatherCatV1.22B15,2013-12-10 15:01:00,
2013-12-10 10:03:00,31.8,31.8,29.90,West,278,0.0,0.0,100,0.00,,,0.00,WeatherCatV1.22B15,2013-12-10 15:03:00,
2013-12-10 10:06:00,31.8,31.8,29.90,West,278,0.0,0.0,100,0.00,,,0.00,WeatherCatV1.22B15,2013-12-10 15:06:00,
2013-12-10 10:07:00,31.8,31.8,29.91,West,278,0.0,0.0,100,0.00,,,0.00,WeatherCatV1.22B15,2013-12-10 15:07:00,
2013-12-10 10:08:00,31.8,31.8,29.91,West,278,0.0,0.0,100,0.00,,,0.00,WeatherCatV1.22B15,2013-12-10 15:08:00,
2013-12-10 10:11:00,31.9,31.9,29.91,West,278,0.0,0.0,100,0.00,,,0.00,WeatherCatV1.22B15,2013-12-10 15:11:00,
2013-12-10 10:12:00,32.0,32.0,29.91,West,278,0.0,0.0,100,0.00,,,0.00,WeatherCatV1.22B15,2013-12-10 15:12:00,
2013-12-10 10:13:00,32.0,32.0,29.90,West,278,0.0,0.0,100,0.00,,,0.00,WeatherCatV1.22B15,2013-12-10 15:13:00,
2013-12-10 10:14:00,32.0,32.0,29.91,West,278,0.0,0.0,100,0.00,,,0.00,WeatherCatV1.22B15,2013-12-10 15:14:00,
2013-12-10 10:17:00,31.9,31.9,29.90,West,278,0.0,0.0,100,0.00,,,0.00,WeatherCatV1.22B15,2013-12-10 15:17:00,
2013-12-10 10:18:00,31.9,31.9,29.90,West,278,0.0,0.0,100,0.00,,,0.00,WeatherCatV1.22B15,2013-12-10 15:18:00,
2013-12-10 10:19:00,32.0,32.0,29.91,West,278,0.0,0.0,100,0.00,,,0.00,WeatherCatV1.22B15,2013-12-10 15:19:00,
2013-12-10 10:20:00,31.9,31.9,29.91,West,278,0.0,0.0,100,0.00,,,0.00,WeatherCatV1.22B15,2013-12-10 15:20:00,
2013-12-10 10:22:00,32.0,32.0,29.91,West,278,0.0,0.0,100,0.00,,,0.00,WeatherCatV1.22B15,2013-12-10 15:22:00,
2013-12-10 10:23:00,31.9,31.9,29.90,West,278,0.0,0.0,100,0.00,,,0.00,WeatherCatV1.22B15,2013-12-10 15:23:00,
2013-12-10 10:24:00,32.0,32.0,29.89,West,278,0.0,0.0,100,0.00,,,0.00,WeatherCatV1.22B15,2013-12-10 15:24:00,
2013-12-10 10:25:00,31.9,31.9,29.89,West,278,0.0,0.0,100,0.00,,,0.00,WeatherCatV1.22B15,2013-12-10 15:25:00,
2013-12-10 10:28:00,31.9,31.9,29.89,West,278,0.0,0.0,100,0.00,,,0.00,WeatherCatV1.22B15,2013-12-10 15:28:00,
2013-12-10 10:29:00,32.1,32.1,29.90,West,278,0.0,0.0,100,0.00,,,0.00,WeatherCatV1.22B15,2013-12-10 15:29:00,
2013-12-10 10:30:00,32.1,32.1,29.90,West,278,0.0,0.0,100,0.00,,,0.00,WeatherCatV1.22B15,2013-12-10 15:30:00,
2013-12-10 10:31:00,32.1,32.1,29.90,West,278,0.0,0.0,100,0.00,,,0.00,WeatherCatV1.22B15,2013-12-10 15:31:00,
2013-12-10 10:33:00,32.1,32.1,29.89,West,278,0.0,0.0,100,0.00,,,0.00,WeatherCatV1.22B15,2013-12-10 15:33:00,
2013-12-10 10:34:00,32.1,32.1,29.89,West,278,0.0,0.0,100,0.00,,,0.00,WeatherCatV1.22B15,2013-12-10 15:34:00,
2013-12-10 10:35:00,32.1,32.1,29.89,West,278,0.0,0.0,100,0.00,,,0.00,WeatherCatV1.22B15,2013-12-10 15:35:00,
2013-12-10 10:38:00,32.1,32.1,29.88,West,278,0.0,0.0,100,0.00,,,0.00,WeatherCatV1.22B15,2013-12-10 15:38:00,
2013-12-10 10:39:00,32.1,32.1,29.87,West,278,0.0,0.0,100,0.00,,,0.00,WeatherCatV1.22B15,2013-12-10 15:39:00,
2013-12-10 10:41:00,32.1,32.1,29.87,West,278,0.0,0.0,100,0.00,,,0.00,WeatherCatV1.22B15,2013-12-10 15:41:00,
2013-12-10 10:42:00,32.1,32.1,29.87,West,278,0.0,0.0,100,0.00,,,0.00,WeatherCatV1.22B15,2013-12-10 15:42:00,
2013-12-10 10:43:00,32.1,32.1,29.87,West,278,0.0,0.0,100,0.00,,,0.00,WeatherCatV1.22B15,2013-12-10 15:43:00,
2013-12-10 10:45:00,32.1,32.1,29.87,West,278,0.0,0.0,100,0.00,,,0.00,WeatherCatV1.22B15,2013-12-10 15:45:00,
2013-12-10 10:46:00,32.1,32.1,29.87,West,278,0.0,0.0,100,0.00,,,0.00,WeatherCatV1.22B15,2013-12-10 15:46:00,
2013-12-10 10:48:00,32.1,32.1,29.87,West,278,0.0,0.0,100,0.00,,,0.00,WeatherCatV1.22B15,2013-12-10 15:48:00,
2013-12-10 10:50:00,32.1,32.1,29.86,West,278,0.0,0.0,100,0.00,,,0.00,WeatherCatV1.22B15,2013-12-10 15:50:00,
2013-12-10 10:51:00,32.1,32.1,29.86,West,278,0.0,0.0,100,0.00,,,0.00,WeatherCatV1.22B15,2013-12-10 15:51:00,
2013-12-10 10:53:00,32.1,32.1,29.86,West,278,0.0,0.0,100,0.00,,,0.00,WeatherCatV1.22B15,2013-12-10 15:53:00,
2013-12-10 10:55:00,32.1,32.1,29.86,West,278,0.0,0.0,100,0.00,,,0.00,WeatherCatV1.22B15,2013-12-10 15:55:00,
2013-12-10 10:56:00,32.1,32.1,29.86,West,278,0.0,0.0,100,0.00,,,0.00,WeatherCatV1.22B15,2013-12-10 15:56:00,
2013-12-10 10:57:00,32.2,32.2,29.86,West,278,0.0,0.0,100,0.00,,,0.00,WeatherCatV1.22B15,2013-12-10 15:57:00,
2013-12-10 10:58:00,32.3,32.3,29.86,West,278,0.0,0.0,100,0.00,,,0.00,WeatherCatV1.22B15,2013-12-10 15:58:00,
2013-12-10 10:59:00,32.2,32.2,29.86,West,278,0.0,0.0,100,0.00,,,0.00,WeatherCatV1.22B15,2013-12-10 15:59:00,
2013-12-10 11:02:00,32.2,32.2,29.86,West,278,0.0,0.0,100,0.00,,,0.00,WeatherCatV1.22B15,2013-12-10 16:02:00,
2013-12-10 11:03:00,32.2,32.2,29.85,West,278,0.0,0.0,100,0.00,,,0.00,WeatherCatV1.22B15,2013-12-10 16:03:00,
2013-12-10 11:04:00,32.2,32.2,29.85,West,278,0.0,0.0,100,0.00,,,0.00,WeatherCatV1.22B15,2013-12-10 16:04:00,
2013-12-10 11:05:00,32.2,32.2,29.85,West,278,0.0,0.0,100,0.00,,,0.00,WeatherCatV1.22B15,2013-12-10 16:05:00,
2013-12-10 11:07:00,32.2,32.2,29.85,West,278,0.0,0.0,100,0.00,,,0.00,WeatherCatV1.22B15,2013-12-10 16:07:00,
2013-12-10 11:08:00,32.2,32.2,29.85,West,278,0.0,0.0,100,0.00,,,0.00,WeatherCatV1.22B15,2013-12-10 16:08:00,
2013-12-10 11:10:00,32.4,32.4,29.85,West,278,0.0,0.0,100,0.00,,,0.00,WeatherCatV1.22B15,2013-12-10 16:10:00,
2013-12-10 11:11:00,32.4,32.4,29.85,West,278,0.0,0.0,100,0.00,,,0.00,WeatherCatV1.22B15,2013-12-10 16:11:00,
2013-12-10 11:12:00,32.4,32.4,29.85,West,278,0.0,0.0,100,0.00,,,0.00,WeatherCatV1.22B15,2013-12-10 16:12:00,
2013-12-10 11:14:00,32.4,32.4,29.84,West,278,0.0,0.0,100,0.00,,,0.00,WeatherCatV1.22B15,2013-12-10 16:14:00,
2013-12-10 11:16:00,32.5,32.5,29.84,West,278,0.0,0.0,100,0.00,,,0.00,WeatherCatV1.22B15,2013-12-10 16:16:00,
2013-12-10 11:17:00,32.5,32.5,29.85,West,278,0.0,0.0,100,0.00,,,0.00,WeatherCatV1.22B15,2013-12-10 16:17:00,
2013-12-10 11:18:00,32.5,32.5,29.85,West,278,0.0,0.0,100,0.00,,,0.00,WeatherCatV1.22B15,2013-12-10 16:18:00,
2013-12-10 11:19:00,32.5,32.5,29.84,West,278,0.0,0.0,100,0.00,,,0.00,WeatherCatV1.22B15,2013-12-10 16:19:00,
2013-12-10 11:21:00,32.7,32.7,29.84,West,278,0.0,0.0,100,0.00,,,0.00,WeatherCatV1.22B15,2013-12-10 16:21:00,
2013-12-10 11:22:00,32.7,32.7,29.84,West,278,0.0,0.0,100,0.00,,,0.00,WeatherCatV1.22B15,2013-12-10 16:22:00,
2013-12-10 11:23:00,32.7,32.7,29.84,West,278,0.0,0.0,100,0.00,,,0.00,WeatherCatV1.22B15,2013-12-10 16:23:00,
2013-12-10 11:24:00,32.7,32.7,29.84,West,278,0.0,0.0,100,0.00,,,0.00,WeatherCatV1.22B15,2013-12-10 16:24:00,
2013-12-10 11:25:00,32.6,32.6,29.84,West,278,0.0,0.0,100,0.00,,,0.00,WeatherCatV1.22B15,2013-12-10 16:25:00,
2013-12-10 11:27:00,32.6,32.6,29.84,West,278,0.0,0.0,100,0.00,,,0.00,WeatherCatV1.22B15,2013-12-10 16:27:00,
2013-12-10 11:28:00,32.7,32.7,29.84,West,278,0.0,0.0,100,0.00,,,0.00,WeatherCatV1.22B15,2013-12-10 16:28:00,
2013-12-10 11:29:00,32.7,32.7,29.83,West,278,0.0,0.0,100,0.00,,,0.00,WeatherCatV1.22B15,2013-12-10 16:29:00,
2013-12-10 11:31:00,32.8,32.8,29.83,West,278,0.0,0.0,100,0.00,,,0.00,WeatherCatV1.22B15,2013-12-10 16:31:00,
2013-12-10 11:32:00,32.8,32.8,29.83,West,278,0.0,0.0,100,0.00,,,0.00,WeatherCatV1.22B15,2013-12-10 16:32:00,
2013-12-10 11:33:00,32.9,32.9,29.83,West,278,0.0,0.0,100,0.00,,,0.00,WeatherCatV1.22B15,2013-12-10 16:33:00,
2013-12-10 11:34:00,32.9,32.9,29.83,West,278,0.0,0.0,100,0.00,,,0.00,WeatherCatV1.22B15,2013-12-10 16:34:00,
2013-12-10 11:35:00,32.9,32.9,29.83,West,278,0.0,0.0,100,0.00,,,0.00,WeatherCatV1.22B15,2013-12-10 16:35:00,
2013-12-10 11:36:00,32.9,32.9,29.83,West,278,0.0,0.0,100,0.00,,,0.00,WeatherCatV1.22B15,2013-12-10 16:36:00,
2013-12-10 11:38:00,32.9,32.9,29.82,West,278,0.0,0.0,100,0.00,,,0.00,WeatherCatV1.22B15,2013-12-10 16:38:00,
2013-12-10 11:39:00,32.9,32.9,29.82,West,278,0.0,0.0,100,0.00,,,0.00,WeatherCatV1.22B15,2013-12-10 16:39:00,
2013-12-10 11:40:00,32.9,32.9,29.82,West,278,0.0,0.0,100,0.00,,,0.00,WeatherCatV1.22B15,2013-12-10 16:40:00,
2013-12-10 11:41:00,32.9,32.9,29.82,West,278,0.0,0.0,100,0.00,,,0.00,WeatherCatV1.22B15,2013-12-10 16:41:00,
2013-12-10 11:45:00,32.9,32.9,29.82,West,278,0.0,0.0,100,0.00,,,0.00,WeatherCatV1.22B15,2013-12-10 16:45:00,
2013-12-10 11:46:00,32.9,32.9,29.82,West,278,0.0,0.0,100,0.00,,,0.00,WeatherCatV1.22B15,2013-12-10 16:46:00,
2013-12-10 11:47:00,33.0,33.0,29.81,West,278,0.0,0.0,100,0.00,,,0.00,WeatherCatV1.22B15,2013-12-10 16:47:00,
2013-12-10 11:48:00,33.1,33.1,29.82,West,278,0.0,0.0,100,0.00,,,0.00,WeatherCatV1.22B15,2013-12-10 16:48:00,
2013-12-10 11:50:00,32.9,32.9,29.82,West,278,0.0,0.0,100,0.00,,,0.00,WeatherCatV1.22B15,2013-12-10 16:50:00,
2013-12-10 11:51:00,32.9,32.9,29.82,West,278,0.0,0.0,100,0.00,,,0.00,WeatherCatV1.22B15,2013-12-10 16:51:00,
2013-12-10 11:52:00,32.9,32.9,29.82,West,278,0.0,0.0,100,0.00,,,0.00,WeatherCatV1.22B15,2013-12-10 16:52:00,
2013-12-10 11:53:00,32.9,32.9,29.81,West,278,0.0,0.0,100,0.00,,,0.00,WeatherCatV1.22B15,2013-12-10 16:53:00,
2013-12-10 11:55:00,32.9,32.9,29.82,West,278,0.0,0.0,100,0.00,,,0.00,WeatherCatV1.22B15,2013-12-10 16:55:00,
2013-12-10 11:57:00,32.8,32.8,29.82,West,278,0.0,0.0,100,0.00,,,0.00,WeatherCatV1.22B15,2013-12-10 16:57:00,
2013-12-10 11:58:00,32.9,32.9,29.82,West,278,0.0,0.0,100,0.00,,,0.00,WeatherCatV1.22B15,2013-12-10 16:58:00,
2013-12-10 11:59:00,32.9,32.9,29.81,West,278,0.0,0.0,100,0.00,,,0.00,WeatherCatV1.22B15,2013-12-10 16:59:00,
2013-12-10 12:02:00,32.9,32.9,29.81,West,278,0.0,0.0,100,0.00,,,0.00,WeatherCatV1.22B15,2013-12-10 17:02:00,
2013-12-10 12:03:00,32.9,32.9,29.82,West,278,0.0,0.0,100,0.00,,,0.00,WeatherCatV1.22B15,2013-12-10 17:03:00,
2013-12-10 12:05:00,32.9,32.9,29.82,West,278,0.0,0.0,100,0.00,,,0.00,WeatherCatV1.22B15,2013-12-10 17:05:00,
2013-12-10 12:06:00,32.7,32.7,29.82,West,278,0.0,0.0,100,0.00,,,0.00,WeatherCatV1.22B15,2013-12-10 17:06:00,
2013-12-10 12:07:00,32.7,32.7,29.81,West,278,0.0,0.0,100,0.00,,,0.00,WeatherCatV1.22B15,2013-12-10 17:07:00,
2013-12-10 12:09:00,32.6,32.6,29.82,West,278,0.0,0.0,100,0.00,,,0.00,WeatherCatV1.22B15,2013-12-10 17:09:00,
2013-12-10 12:10:00,32.6,32.6,29.81,West,278,0.0,0.0,100,0.00,,,0.00,WeatherCatV1.22B15,2013-12-10 17:10:00,
2013-12-10 12:12:00,32.5,32.5,29.82,West,278,0.0,0.0,100,0.00,,,0.00,WeatherCatV1.22B15,2013-12-10 17:12:00,
2013-12-10 12:15:00,32.5,32.5,29.82,West,278,0.0,2.0,100,0.00,,,0.00,WeatherCatV1.22B15,2013-12-10 17:15:00,
2013-12-10 12:16:00,32.5,32.5,29.81,West,278,0.0,0.0,100,0.00,,,0.00,WeatherCatV1.22B15,2013-12-10 17:16:00,
2013-12-10 12:17:00,32.5,32.5,29.81,West,278,0.0,1.0,100,0.00,,,0.00,WeatherCatV1.22B15,2013-12-10 17:17:00,
2013-12-10 12:19:00,32.5,32.5,29.81,West,278,0.0,1.0,100,0.00,,,0.00,WeatherCatV1.22B15,2013-12-10 17:19:00,
2013-12-10 12:20:00,32.4,32.4,29.80,West,278,0.0,2.0,100,0.00,,,0.00,WeatherCatV1.22B15,2013-12-10 17:20:00,
2013-12-10 12:22:00,32.4,32.4,29.80,West,278,0.0,0.0,100,0.00,,,0.00,WeatherCatV1.22B15,2013-12-10 17:22:00,
2013-12-10 12:24:00,32.4,32.4,29.81,West,278,0.0,0.0,100,0.00,,,0.00,WeatherCatV1.22B15,2013-12-10 17:24:00,
2013-12-10 12:25:00,32.4,32.4,29.81,West,278,0.0,0.0,100,0.00,,,0.00,WeatherCatV1.22B15,2013-12-10 17:25:00,
2013-12-10 12:26:00,32.3,32.3,29.81,West,278,1.0,2.0,100,0.00,,,0.00,WeatherCatV1.22B15,2013-12-10 17:26:00,
2013-12-10 12:27:00,32.2,32.2,29.81,West,278,0.0,0.0,100,0.00,,,0.00,WeatherCatV1.22B15,2013-12-10 17:27:00,
2013-12-10 12:29:00,32.2,32.2,29.81,West,278,0.0,2.0,100,0.00,,,0.00,WeatherCatV1.22B15,2013-12-10 17:29:00,
2013-12-10 12:30:00,32.2,32.2,29.80,West,278,0.0,0.0,100,0.00,,,0.00,WeatherCatV1.22B15,2013-12-10 17:30:00,
2013-12-10 12:31:00,32.2,32.2,29.80,West,278,0.0,0.0,100,0.00,,,0.00,WeatherCatV1.22B15,2013-12-10 17:31:00,
2013-12-10 12:32:00,32.2,32.2,29.80,West,278,0.0,0.0,100,0.00,,,0.00,WeatherCatV1.22B15,2013-12-10 17:32:00,
2013-12-10 12:33:00,32.2,32.2,29.80,West,278,0.0,0.0,100,0.00,,,0.00,WeatherCatV1.22B15,2013-12-10 17:33:00,
2013-12-10 12:34:00,32.2,32.2,29.80,West,278,0.0,0.0,100,0.00,,,0.00,WeatherCatV1.22B15,2013-12-10 17:34:00,
2013-12-10 12:35:00,32.2,32.2,29.80,West,278,0.0,0.0,100,0.00,,,0.00,WeatherCatV1.22B15,2013-12-10 17:35:00,
2013-12-10 12:38:00,32.2,32.2,29.81,West,278,0.0,0.0,100,0.00,,,0.00,WeatherCatV1.22B15,2013-12-10 17:38:00,
2013-12-10 12:39:00,32.2,32.2,29.80,West,278,0.0,0.0,100,0.00,,,0.00,WeatherCatV1.22B15,2013-12-10 17:39:00,
2013-12-10 12:40:00,32.2,32.2,29.81,West,278,0.0,0.0,100,0.00,,,0.00,WeatherCatV1.22B15,2013-12-10 17:40:00,
2013-12-10 12:43:00,32.2,32.2,29.80,West,278,0.0,0.0,100,0.00,,,0.00,WeatherCatV1.22B15,2013-12-10 17:43:00,
2013-12-10 12:44:00,32.2,32.2,29.80,West,278,0.0,0.0,100,0.00,,,0.00,WeatherCatV1.22B15,2013-12-10 17:44:00,
2013-12-10 12:45:00,32.2,32.2,29.80,West,278,0.0,0.0,100,0.00,,,0.00,WeatherCatV1.22B15,2013-12-10 17:45:00,
2013-12-10 12:46:00,32.2,32.2,29.80,West,278,0.0,0.0,100,0.00,,,0.00,WeatherCatV1.22B15,2013-12-10 17:46:00,
2013-12-10 12:47:00,32.4,32.4,29.80,West,278,0.0,0.0,100,0.00,,,0.00,WeatherCatV1.22B15,2013-12-10 17:47:00,
2013-12-10 12:49:00,32.4,32.4,29.80,West,278,0.0,0.0,100,0.00,,,0.00,WeatherCatV1.22B15,2013-12-10 17:49:00,
2013-12-10 12:51:00,32.4,32.4,29.80,West,278,0.0,0.0,100,0.00,,,0.00,WeatherCatV1.22B15,2013-12-10 17:51:00,
2013-12-10 12:52:00,32.4,32.4,29.81,West,278,0.0,0.0,100,0.00,,,0.00,WeatherCatV1.22B15,2013-12-10 17:52:00,
2013-12-10 12:53:00,32.4,32.4,29.80,West,278,0.0,0.0,100,0.00,,,0.00,WeatherCatV1.22B15,2013-12-10 17:53:00,
2013-12-10 12:54:00,32.4,32.4,29.80,West,278,0.0,0.0,100,0.00,,,0.00,WeatherCatV1.22B15,2013-12-10 17:54:00,
2013-12-10 12:56:00,32.4,32.4,29.80,West,278,0.0,0.0,100,0.00,,,0.00,WeatherCatV1.22B15,2013-12-10 17:56:00,
2013-12-10 12:57:00,32.4,32.4,29.80,West,278,0.0,0.0,100,0.00,,,0.00,WeatherCatV1.22B15,2013-12-10 17:57:00,
2013-12-10 12:59:00,32.4,32.4,29.81,West,278,0.0,0.0,100,0.00,,,0.00,WeatherCatV1.22B15,2013-12-10 17:59:00,
2013-12-10 13:00:00,32.2,32.2,29.81,West,278,0.0,0.0,100,0.00,,,0.00,WeatherCatV1.22B15,2013-12-10 18:00:00,
2013-12-10 13:02:00,32.3,32.3,29.82,West,278,1.0,3.0,100,0.00,,,0.00,WeatherCatV1.22B15,2013-12-10 18:02:00,
2013-12-10 13:05:00,32.2,32.2,29.81,West,278,0.0,4.0,100,0.00,,,0.00,WeatherCatV1.22B15,2013-12-10 18:05:00,
2013-12-10 13:07:00,32.3,32.3,29.81,West,278,0.0,3.0,100,0.00,,,0.00,WeatherCatV1.22B15,2013-12-10 18:07:00,
2013-12-10 13:08:00,32.1,32.1,29.80,West,278,0.0,3.0,100,0.00,,,0.00,WeatherCatV1.22B15,2013-12-10 18:08:00,
2013-12-10 13:09:00,32.1,32.1,29.80,West,278,0.0,0.0,100,0.00,,,0.00,WeatherCatV1.22B15,2013-12-10 18:09:00,
2013-12-10 13:10:00,32.1,32.1,29.81,West,278,0.0,0.0,100,0.00,,,0.00,WeatherCatV1.22B15,2013-12-10 18:10:00,
2013-12-10 13:11:00,31.9,31.9,29.81,West,278,0.0,1.0,100,0.00,,,0.00,WeatherCatV1.22B15,2013-12-10 18:11:00,
2013-12-10 13:12:00,32.0,32.0,29.81,West,278,0.0,0.0,100,0.00,,,0.00,WeatherCatV1.22B15,2013-12-10 18:12:00,
2013-12-10 13:13:00,31.9,31.9,29.81,West,278,3.0,3.0,100,0.00,,,0.00,WeatherCatV1.22B15,2013-12-10 18:13:00,
2013-12-10 13:14:00,31.9,31.9,29.81,West,278,3.0,6.0,100,0.00,,,0.00,WeatherCatV1.22B15,2013-12-10 18:14:00,
2013-12-10 13:16:00,31.8,31.8,29.81,West,266,2.0,6.0,100,0.00,,,0.00,WeatherCatV1.22B15,2013-12-10 18:16:00,
2013-12-10 13:17:00,31.8,31.8,29.81,West,266,0.0,4.0,100,0.00,,,0.00,WeatherCatV1.22B15,2013-12-10 18:17:00,
2013-12-10 13:18:00,31.6,31.6,29.82,West,266,1.0,2.0,100,0.00,,,0.00,WeatherCatV1.22B15,2013-12-10 18:18:00,
2013-12-10 13:20:00,31.7,31.7,29.81,West,266,0.0,2.0,100,0.00,,,0.00,WeatherCatV1.22B15,2013-12-10 18:20:00,
2013-12-10 13:21:00,31.7,31.7,29.81,West,266,0.0,1.0,100,0.00,,,0.00,WeatherCatV1.22B15,2013-12-10 18:21:00,
2013-12-10 13:22:00,31.6,31.6,29.81,West,266,0.0,4.0,100,0.00,,,0.00,WeatherCatV1.22B15,2013-12-10 18:22:00,
2013-12-10 13:23:00,31.7,31.7,29.81,West,266,5.0,5.0,100,0.00,,,0.00,WeatherCatV1.22B15,2013-12-10 18:23:00,
2013-12-10 13:24:00,31.5,31.5,29.81,West,267,2.0,5.0,100,0.00,,,0.00,WeatherCatV1.22B15,2013-12-10 18:24:00,
2013-12-10 13:27:00,31.5,31.5,29.80,West,266,1.0,2.0,100,0.00,,,0.00,WeatherCatV1.22B15,2013-12-10 18:27:00,
2013-12-10 13:28:00,31.5,31.5,29.80,West,267,0.0,3.0,100,0.00,,,0.00,WeatherCatV1.22B15,2013-12-10 18:28:00,
2013-12-10 13:29:00,31.5,31.5,29.80,West,266,0.0,3.0,100,0.00,,,0.00,WeatherCatV1.22B15,2013-12-10 18:29:00,
2013-12-10 13:32:00,31.3,31.3,29.80,WNW,290,1.0,8.0,100,0.00,,,0.00,WeatherCatV1.22B15,2013-12-10 18:32:00,
2013-12-10 13:34:00,31.3,31.3,29.79,WNW,290,1.0,5.0,100,0.00,,,0.00,WeatherCatV1.22B15,2013-12-10 18:34:00,
2013-12-10 13:35:00,31.2,31.2,29.79,WNW,290,4.0,4.0,100,0.00,,,0.00,WeatherCatV1.22B15,2013-12-10 18:35:00,
2013-12-10 13:36:00,31.2,31.2,29.80,WNW,290,3.0,4.0,100,0.00,,,0.00,WeatherCatV1.22B15,2013-12-10 18:36:00,
2013-12-10 13:37:00,31.2,31.2,29.80,WNW,290,1.0,3.0,100,0.00,,,0.00,WeatherCatV1.22B15,2013-12-10 18:37:00,
2013-12-10 13:38:00,31.2,31.0,29.80,WNW,290,2.0,2.0,99,0.00,,,0.00,WeatherCatV1.22B15,2013-12-10 18:38:00,
2013-12-10 13:40:00,31.1,31.1,29.80,WNW,290,0.0,3.0,100,0.00,,,0.00,WeatherCatV1.22B15,2013-12-10 18:40:00,
2013-12-10 13:42:00,31.1,31.1,29.80,WNW,290,0.0,1.0,100,0.00,,,0.00,WeatherCatV1.22B15,2013-12-10 18:42:00,
2013-12-10 13:43:00,31.0,31.0,29.80,WNW,290,0.0,1.0,100,0.00,,,0.00,WeatherCatV1.22B15,2013-12-10 18:43:00,
2013-12-10 13:44:00,31.0,31.0,29.80,WNW,290,2.0,3.0,100,0.00,,,0.00,WeatherCatV1.22B15,2013-12-10 18:44:00,
2013-12-10 13:46:00,31.1,31.1,29.80,WNW,290,0.0,1.0,100,0.00,,,0.00,WeatherCatV1.22B15,2013-12-10 18:46:00,
2013-12-10 13:48:00,31.0,31.0,29.81,WNW,290,0.0,3.0,100,0.00,,,0.00,WeatherCatV1.22B15,2013-12-10 18:48:00,
2013-12-10 13:49:00,31.1,31.1,29.81,WNW,290,1.0,1.0,100,0.00,,,0.00,WeatherCatV1.22B15,2013-12-10 18:49:00,
2013-12-10 13:51:00,31.1,31.1,29.81,WNW,285,0.0,5.0,100,0.00,,,0.00,WeatherCatV1.22B15,2013-12-10 18:51:00,
2013-12-10 13:53:00,30.9,30.9,29.82,WNW,285,0.0,2.0,100,0.00,,,0.00,WeatherCatV1.22B15,2013-12-10 18:53:00,
2013-12-10 13:55:00,30.9,30.9,29.81,WNW,285,0.0,2.0,100,0.00,,,0.00,WeatherCatV1.22B15,2013-12-10 18:55:00,
2013-12-10 13:56:00,30.9,30.6,29.81,WNW,285,0.0,2.0,99,0.00,,,0.00,WeatherCatV1.22B15,2013-12-10 18:56:00,
2013-12-10 13:57:00,30.9,30.9,29.81,WNW,285,0.0,0.0,100,0.00,,,0.00,WeatherCatV1.22B15,2013-12-10 18:57:00,
2013-12-10 13:58:00,30.9,30.6,29.82,WNW,285,0.0,0.0,99,0.00,,,0.00,WeatherCatV1.22B15,2013-12-10 18:58:00,
2013-12-10 14:00:00,30.9,30.9,29.81,WNW,285,1.0,1.0,100,0.00,,,0.00,WeatherCatV1.22B15,2013-12-10 19:00:00,
2013-12-10 14:01:00,30.9,30.9,29.81,WNW,285,0.0,1.0,100,0.00,,,0.00,WeatherCatV1.22B15,2013-12-10 19:01:00,
2013-12-10 14:02:00,30.9,30.6,29.81,WNW,285,1.0,1.0,99,0.00,,,0.00,WeatherCatV1.22B15,2013-12-10 19:02:00,
2013-12-10 14:03:00,30.9,30.9,29.81,WNW,285,1.0,3.0,100,0.00,,,0.00,WeatherCatV1.22B15,2013-12-10 19:03:00,
2013-12-10 14:04:00,30.9,30.9,29.81,WNW,285,0.0,3.0,100,0.00,,,0.00,WeatherCatV1.22B15,2013-12-10 19:04:00,
2013-12-10 14:07:00,30.8,30.8,29.81,WNW,285,2.0,4.0,100,0.00,,,0.00,WeatherCatV1.22B15,2013-12-10 19:07:00,
2013-12-10 14:08:00,30.8,30.8,29.82,WNW,285,3.0,4.0,100,0.00,,,0.00,WeatherCatV1.22B15,2013-12-10 19:08:00,
2013-12-10 14:10:00,30.6,30.6,29.81,WNW,291,2.0,4.0,100,0.00,,,0.00,WeatherCatV1.22B15,2013-12-10 19:10:00,
2013-12-10 14:13:00,30.5,30.5,29.82,WNW,291,0.0,1.0,100,0.00,,,0.00,WeatherCatV1.22B15,2013-12-10 19:13:00,
2013-12-10 14:14:00,30.5,30.2,29.82,WNW,291,0.0,1.0,99,0.00,,,0.00,WeatherCatV1.22B15,2013-12-10 19:14:00,
2013-12-10 14:15:00,30.5,30.2,29.81,WNW,291,0.0,0.0,99,0.00,,,0.00,WeatherCatV1.22B15,2013-12-10 19:15:00,
2013-12-10 14:19:00,30.3,30.3,29.81,WNW,291,1.0,2.0,100,0.00,,,0.00,WeatherCatV1.22B15,2013-12-10 19:19:00,
2013-12-10 14:20:00,30.3,30.0,29.81,WNW,291,1.0,2.0,99,0.00,,,0.00,WeatherCatV1.22B15,2013-12-10 19:20:00,
2013-12-10 14:21:00,30.3,30.3,29.81,WNW,291,0.0,2.0,100,0.00,,,0.00,WeatherCatV1.22B15,2013-12-10 19:21:00,
2013-12-10 14:22:00,30.3,30.3,29.81,WNW,291,1.0,3.0,100,0.00,,,0.00,WeatherCatV1.22B15,2013-12-10 19:22:00,
2013-12-10 14:24:00,30.3,30.0,29.81,WNW,291,0.0,2.0,99,0.00,,,0.00,WeatherCatV1.22B15,2013-12-10 19:24:00,
2013-12-10 14:26:00,30.3,30.3,29.81,WNW,291,0.0,0.0,100,0.00,,,0.00,WeatherCatV1.22B15,2013-12-10 19:26:00,
2013-12-10 14:27:00,30.3,30.0,29.82,WNW,291,1.0,2.0,99,0.00,,,0.00,WeatherCatV1.22B15,2013-12-10 19:27:00,
2013-12-10 14:28:00,30.3,30.3,29.81,WNW,291,0.0,2.0,100,0.00,,,0.00,WeatherCatV1.22B15,2013-12-10 19:28:00,
2013-12-10 14:29:00,30.3,30.3,29.81,WNW,291,0.0,2.0,100,0.00,,,0.00,WeatherCatV1.22B15,2013-12-10 19:29:00,
2013-12-10 14:30:00,30.3,30.3,29.82,WNW,291,1.0,1.0,100,0.00,,,0.00,WeatherCatV1.22B15,2013-12-10 19:30:00,
2013-12-10 14:32:00,30.3,30.3,29.82,WNW,291,0.0,2.0,100,0.00,,,0.00,WeatherCatV1.22B15,2013-12-10 19:32:00,
2013-12-10 14:33:00,30.3,30.3,29.82,WNW,291,0.0,2.0,100,0.00,,,0.00,WeatherCatV1.22B15,2013-12-10 19:33:00,
2013-12-10 14:35:00,30.3,30.0,29.81,WNW,291,1.0,3.0,99,0.00,,,0.00,WeatherCatV1.22B15,2013-12-10 19:35:00,
2013-12-10 14:38:00,30.3,30.3,29.81,WNW,291,1.0,4.0,100,0.00,,,0.00,WeatherCatV1.22B15,2013-12-10 19:38:00,
2013-12-10 14:39:00,30.4,30.1,29.81,WNW,291,1.0,3.0,99,0.00,,,0.00,WeatherCatV1.22B15,2013-12-10 19:39:00,
2013-12-10 14:40:00,30.2,30.2,29.81,WNW,291,0.0,2.0,100,0.00,,,0.00,WeatherCatV1.22B15,2013-12-10 19:40:00,
2013-12-10 14:41:00,30.2,30.0,29.81,WNW,291,3.0,3.0,99,0.00,,,0.00,WeatherCatV1.22B15,2013-12-10 19:41:00,
2013-12-10 14:43:00,30.2,30.0,29.81,WNW,291,0.0,2.0,99,0.00,,,0.00,WeatherCatV1.22B15,2013-12-10 19:43:00,
2013-12-10 14:44:00,30.2,30.2,29.81,WNW,291,0.0,1.0,100,0.00,,,0.00,WeatherCatV1.22B15,2013-12-10 19:44:00,
2013-12-10 14:47:00,30.2,30.0,29.81,WNW,291,0.0,0.0,99,0.00,,,0.00,WeatherCatV1.22B15,2013-12-10 19:47:00,
2013-12-10 14:50:00,30.2,30.0,29.82,WNW,291,2.0,3.0,99,0.00,,,0.00,WeatherCatV1.22B15,2013-12-10 19:50:00,
2013-12-10 14:51:00,30.2,30.0,29.81,WNW,291,1.0,3.0,99,0.00,,,0.00,WeatherCatV1.22B15,2013-12-10 19:51:00,
2013-12-10 14:52:00,30.2,30.0,29.81,WNW,291,1.0,2.0,99,0.00,,,0.00,WeatherCatV1.22B15,2013-12-10 19:52:00,
2013-12-10 14:53:00,30.2,30.0,29.81,WNW,291,0.0,2.0,99,0.00,,,0.00,WeatherCatV1.22B15,2013-12-10 19:53:00,
2013-12-10 14:54:00,30.0,29.8,29.81,WNW,291,0.0,1.0,99,0.00,,,0.00,WeatherCatV1.22B15,2013-12-10 19:54:00,
2013-12-10 14:55:00,30.1,29.9,29.81,WNW,291,0.0,1.0,99,0.00,,,0.00,WeatherCatV1.22B15,2013-12-10 19:55:00,
2013-12-10 14:56:00,30.0,29.8,29.80,WNW,291,0.0,1.0,99,0.00,,,0.00,WeatherCatV1.22B15,2013-12-10 19:56:00,
2013-12-10 14:59:00,30.1,29.9,29.81,WNW,291,2.0,2.0,99,0.00,,,0.00,WeatherCatV1.22B15,2013-12-10 19:59:00,
2013-12-10 15:00:00,30.0,29.8,29.81,WNW,291,1.0,3.0,99,0.00,,,0.00,WeatherCatV1.22B15,2013-12-10 20:00:00,
2013-12-10 15:01:00,30.0,30.0,29.82,WNW,291,4.0,4.0,100,0.00,,,0.00,WeatherCatV1.22B15,2013-12-10 20:01:00,
2013-12-10 15:03:00,30.0,29.8,29.81,WNW,291,1.0,4.0,99,0.00,,,0.00,WeatherCatV1.22B15,2013-12-10 20:03:00,
2013-12-10 15:04:00,29.9,29.6,29.81,WNW,292,1.0,1.0,99,0.00,,,0.00,WeatherCatV1.22B15,2013-12-10 20:04:00,
2013-12-10 15:05:00,29.9,29.6,29.81,WNW,291,0.0,2.0,99,0.00,,,0.00,WeatherCatV1.22B15,2013-12-10 20:05:00,
2013-12-10 15:06:00,29.9,29.6,29.80,WNW,291,1.0,3.0,99,0.00,,,0.00,WeatherCatV1.22B15,2013-12-10 20:06:00,
2013-12-10 15:09:00,29.7,29.5,29.81,WSW,251,0.0,5.0,99,0.00,,,0.00,WeatherCatV1.22B15,2013-12-10 20:09:00,
2013-12-10 15:10:00,29.7,29.5,29.81,WSW,248,2.0,5.0,99,0.00,,,0.00,WeatherCatV1.22B15,2013-12-10 20:10:00,
2013-12-10 15:11:00,29.8,29.5,29.80,WSW,256,3.0,3.0,99,0.00,,,0.00,WeatherCatV1.22B15,2013-12-10 20:11:00,
2013-12-10 15:14:00,29.6,29.4,29.81,NW,324,1.0,4.0,99,0.00,,,0.00,WeatherCatV1.22B15,2013-12-10 20:14:00,
2013-12-10 15:15:00,29.6,29.4,29.81,NW,324,0.0,2.0,99,0.00,,,0.00,WeatherCatV1.22B15,2013-12-10 20:15:00,
2013-12-10 15:16:00,29.6,29.4,29.81,NW,324,0.0,2.0,99,0.00,,,0.00,WeatherCatV1.22B15,2013-12-10 20:16:00,
2013-12-10 15:17:00,29.6,29.4,29.81,NW,324,1.0,2.0,99,0.00,,,0.00,WeatherCatV1.22B15,2013-12-10 20:17:00,
2013-12-10 15:19:00,29.6,29.4,29.81,NW,324,2.0,5.0,99,0.00,,,0.00,WeatherCatV1.22B15,2013-12-10 20:19:00,
2013-12-10 15:20:00,29.6,29.4,29.81,NW,325,1.0,5.0,99,0.00,,,0.00,WeatherCatV1.22B15,2013-12-10 20:20:00,
2013-12-10 15:21:00,29.6,29.4,29.81,NW,325,2.0,5.0,99,0.00,,,0.00,WeatherCatV1.22B15,2013-12-10 20:21:00,
2013-12-10 15:22:00,29.4,29.1,29.81,NW,325,0.0,3.0,99,0.00,,,0.00,WeatherCatV1.22B15,2013-12-10 20:22:00,
2013-12-10 15:25:00,29.4,29.1,29.81,WNW,299,2.0,4.0,99,0.00,,,0.00,WeatherCatV1.22B15,2013-12-10 20:25:00,
2013-12-10 15:26:00,29.4,28.9,29.81,NNE,22,1.0,4.0,98,0.00,,,0.00,WeatherCatV1.22B15,2013-12-10 20:26:00,
2013-12-10 15:27:00,29.4,29.1,29.82,NW,325,3.0,4.0,99,0.00,,,0.00,WeatherCatV1.22B15,2013-12-10 20:27:00,
2013-12-10 15:31:00,29.3,29.0,29.81,NW,324,0.0,0.0,99,0.00,,,0.00,WeatherCatV1.22B15,2013-12-10 20:31:00,
2013-12-10 15:32:00,29.3,28.8,29.82,WNW,301,1.0,5.0,98,0.00,,,0.00,WeatherCatV1.22B15,2013-12-10 20:32:00,
2013-12-10 15:33:00,29.3,28.8,29.82,WNW,301,0.0,5.0,98,0.00,,,0.00,WeatherCatV1.22B15,2013-12-10 20:33:00,
2013-12-10 15:34:00,29.3,28.8,29.82,WNW,301,1.0,3.0,98,0.00,,,0.00,WeatherCatV1.22B15,2013-12-10 20:34:00,
2013-12-10 15:37:00,29.1,28.4,29.81,NW,317,0.0,6.0,97,0.00,,,0.00,WeatherCatV1.22B15,2013-12-10 20:37:00,
2013-12-10 15:38:00,29.1,28.6,29.82,NW,317,2.0,6.0,98,0.00,,,0.00,WeatherCatV1.22B15,2013-12-10 20:38:00,
2013-12-10 15:39:00,29.0,28.3,29.82,WSW,248,1.0,5.0,97,0.00,,,0.00,WeatherCatV1.22B15,2013-12-10 20:39:00,
2013-12-10 15:41:00,29.0,28.3,29.81,NE,55,1.0,3.0,97,0.00,,,0.00,WeatherCatV1.22B15,2013-12-10 20:41:00,
2013-12-10 15:43:00,29.0,28.3,29.82,West,262,0.0,5.0,97,0.00,,,0.00,WeatherCatV1.22B15,2013-12-10 20:43:00,
2013-12-10 15:45:00,29.0,28.3,29.82,West,262,1.0,3.0,97,0.00,,,0.00,WeatherCatV1.22B15,2013-12-10 20:45:00,
2013-12-10 15:46:00,29.0,28.3,29.82,West,262,0.0,3.0,97,0.00,,,0.00,WeatherCatV1.22B15,2013-12-10 20:46:00,
2013-12-10 15:48:00,29.0,28.0,29.82,West,263,5.0,6.0,96,0.00,,,0.00,WeatherCatV1.22B15,2013-12-10 20:48:00,
2013-12-10 15:49:00,29.0,28.3,29.82,NNW,329,4.0,7.0,97,0.00,,,0.00,WeatherCatV1.22B15,2013-12-10 20:49:00,
2013-12-10 15:51:00,29.0,28.0,29.82,WNW,285,4.0,5.0,96,0.00,,,0.00,WeatherCatV1.22B15,2013-12-10 20:51:00,
2013-12-10 15:53:00,28.8,27.5,29.82,NW,306,2.0,4.0,95,0.00,,,0.00,WeatherCatV1.22B15,2013-12-10 20:53:00,
2013-12-10 15:55:00,28.9,27.6,29.82,NW,306,0.0,3.0,95,0.00,,,0.00,WeatherCatV1.22B15,2013-12-10 20:55:00,
2013-12-10 15:56:00,28.8,27.5,29.83,NW,306,0.0,2.0,95,0.00,,,0.00,WeatherCatV1.22B15,2013-12-10 20:56:00,
2013-12-10 15:57:00,28.8,27.5,29.83,NW,306,3.0,3.0,95,0.00,,,0.00,WeatherCatV1.22B15,2013-12-10 20:57:00,
2013-12-10 15:58:00,28.8,27.5,29.82,WNW,286,2.0,5.0,95,0.00,,,0.00,WeatherCatV1.22B15,2013-12-10 20:58:00,
2013-12-10 16:00:00,28.8,27.5,29.83,WNW,287,1.0,2.0,95,0.00,,,0.00,WeatherCatV1.22B15,2013-12-10 21:00:00,
2013-12-10 16:02:00,28.8,27.5,29.83,WNW,287,2.0,3.0,95,0.00,,,0.00,WeatherCatV1.22B15,2013-12-10 21:02:00,
2013-12-10 16:04:00,28.7,27.2,29.83,NNE,13,1.0,6.0,94,0.00,,,0.00,WeatherCatV1.22B15,2013-12-10 21:04:00,
2013-12-10 16:05:00,28.7,27.2,29.83,NW,324,1.0,5.0,94,0.00,,,0.00,WeatherCatV1.22B15,2013-12-10 21:05:00,
2013-12-10 16:06:00,28.7,27.2,29.83,West,262,3.0,5.0,94,0.00,,,0.00,WeatherCatV1.22B15,2013-12-10 21:06:00,
2013-12-10 16:08:00,28.7,27.2,29.83,SW,235,0.0,5.0,94,0.00,,,0.00,WeatherCatV1.22B15,2013-12-10 21:08:00,
2013-12-10 16:09:00,28.7,27.2,29.83,SW,235,0.0,2.0,94,0.00,,,0.00,WeatherCatV1.22B15,2013-12-10 21:09:00,
2013-12-10 16:10:00,28.7,27.2,29.83,SW,235,0.0,0.0,94,0.00,,,0.00,WeatherCatV1.22B15,2013-12-10 21:10:00,
2013-12-10 16:11:00,28.7,27.2,29.83,South,188,1.0,2.0,94,0.00,,,0.00,WeatherCatV1.22B15,2013-12-10 21:11:00,
2013-12-10 16:13:00,28.7,27.2,29.83,SSE,166,0.0,1.0,94,0.00,,,0.00,WeatherCatV1.22B15,2013-12-10 21:13:00,
2013-12-10 16:15:00,28.7,27.2,29.83,SSE,167,3.0,3.0,94,0.00,,,0.00,WeatherCatV1.22B15,2013-12-10 21:15:00,
2013-12-10 16:16:00,28.7,27.2,29.83,South,173,1.0,5.0,94,0.00,,,0.00,WeatherCatV1.22B15,2013-12-10 21:16:00,
2013-12-10 16:17:00,28.5,27.0,29.82,WNW,285,2.0,4.0,94,0.00,,,0.00,WeatherCatV1.22B15,2013-12-10 21:17:00,
2013-12-10 16:19:00,28.5,26.7,29.83,WSW,249,1.0,5.0,93,0.00,,,0.00,WeatherCatV1.22B15,2013-12-10 21:19:00,
2013-12-10 16:20:00,28.5,26.7,29.82,WSW,249,0.0,5.0,93,0.00,,,0.00,WeatherCatV1.22B15,2013-12-10 21:20:00,
2013-12-10 16:21:00,28.5,27.0,29.82,WSW,249,1.0,2.0,94,0.00,,,0.00,WeatherCatV1.22B15,2013-12-10 21:21:00,
2013-12-10 16:22:00,28.5,27.0,29.83,WSW,249,0.0,2.0,94,0.00,,,0.00,WeatherCatV1.22B15,2013-12-10 21:22:00,
2013-12-10 16:24:00,28.6,26.8,29.83,WSW,249,0.0,0.0,93,0.00,,,0.00,WeatherCatV1.22B15,2013-12-10 21:24:00,
2013-12-10 16:25:00,28.5,27.0,29.83,WSW,249,0.0,0.0,94,0.00,,,0.00,WeatherCatV1.22B15,2013-12-10 21:25:00,
2013-12-10 16:26:00,28.5,26.7,29.83,WSW,249,1.0,1.0,93,0.00,,,0.00,WeatherCatV1.22B15,2013-12-10 21:26:00,
2013-12-10 16:27:00,28.5,26.7,29.83,WSW,249,1.0,3.0,93,0.00,,,0.00,WeatherCatV1.22B15,2013-12-10 21:27:00,
2013-12-10 16:29:00,28.5,27.0,29.83,SSW,199,2.0,4.0,94,0.00,,,0.00,WeatherCatV1.22B15,2013-12-10 21:29:00,
2013-12-10 16:30:00,28.5,27.0,29.83,SSW,199,1.0,4.0,94,0.00,,,0.00,WeatherCatV1.22B15,2013-12-10 21:30:00,
2013-12-10 16:33:00,28.5,27.0,29.82,SSW,199,1.0,3.0,94,0.00,,,0.00,WeatherCatV1.22B15,2013-12-10 21:33:00,
2013-12-10 16:34:00,28.5,27.0,29.82,SSW,199,1.0,3.0,94,0.00,,,0.00,WeatherCatV1.22B15,2013-12-10 21:34:00,
2013-12-10 16:36:00,28.6,27.1,29.83,SSW,199,1.0,2.0,94,0.00,,,0.00,WeatherCatV1.22B15,2013-12-10 21:36:00,
2013-12-10 16:38:00,28.5,27.0,29.82,SSW,199,0.0,3.0,94,0.00,,,0.00,WeatherCatV1.22B15,2013-12-10 21:38:00,
2013-12-10 16:40:00,28.5,27.0,29.82,SSW,199,1.0,2.0,94,0.00,,,0.00,WeatherCatV1.22B15,2013-12-10 21:40:00,
2013-12-10 16:42:00,28.5,27.0,29.83,SSW,199,0.0,3.0,94,0.00,,,0.00,WeatherCatV1.22B15,2013-12-10 21:42:00,
2013-12-10 16:44:00,28.5,27.0,29.83,SSW,199,1.0,2.0,94,0.00,,,0.00,WeatherCatV1.22B15,2013-12-10 21:44:00,
2013-12-10 16:45:00,28.5,27.0,29.82,SSW,199,2.0,3.0,94,0.00,,,0.00,WeatherCatV1.22B15,2013-12-10 21:45:00,
2013-12-10 16:46:00,28.5,27.0,29.83,SSW,199,1.0,3.0,94,0.00,,,0.00,WeatherCatV1.22B15,2013-12-10 21:46:00,
2013-12-10 16:48:00,28.4,26.9,29.83,SSW,199,3.0,3.0,94,0.00,,,0.00,WeatherCatV1.22B15,2013-12-10 21:48:00,
2013-12-10 16:49:00,28.4,26.9,29.83,SSW,199,3.0,3.0,94,0.00,,,0.00,WeatherCatV1.22B15,2013-12-10 21:49:00,
2013-12-10 16:50:00,28.4,26.9,29.83,SSW,199,2.0,3.0,94,0.00,,,0.00,WeatherCatV1.22B15,2013-12-10 21:50:00,
2013-12-10 16:51:00,28.4,26.9,29.83,SSW,199,2.0,3.0,94,0.00,,,0.00,WeatherCatV1.22B15,2013-12-10 21:51:00,
2013-12-10 16:54:00,28.4,26.9,29.83,SSW,199,1.0,3.0,94,0.00,,,0.00,WeatherCatV1.22B15,2013-12-10 21:54:00,
2013-12-10 16:55:00,28.4,26.9,29.83,SSW,199,1.0,3.0,94,0.00,,,0.00,WeatherCatV1.22B15,2013-12-10 21:55:00,
2013-12-10 16:56:00,28.4,26.9,29.82,SSW,199,1.0,3.0,94,0.00,,,0.00,WeatherCatV1.22B15,2013-12-10 21:56:00,
2013-12-10 16:57:00,28.4,26.9,29.82,SSW,199,1.0,3.0,94,0.00,,,0.00,WeatherCatV1.22B15,2013-12-10 21:57:00,
2013-12-10 16:59:00,28.4,26.9,29.83,SSW,199,1.0,2.0,94,0.00,,,0.00,WeatherCatV1.22B15,2013-12-10 21:59:00,
2013-12-10 17:00:00,28.4,26.9,29.83,SSW,199,1.0,3.0,94,0.00,,,0.00,WeatherCatV1.22B15,2013-12-10 22:00:00,
2013-12-10 17:01:00,28.4,26.9,29.83,SSW,199,1.0,3.0,94,0.00,,,0.00,WeatherCatV1.22B15,2013-12-10 22:01:00,
2013-12-10 17:03:00,28.4,26.9,29.83,SSW,199,0.0,1.0,94,0.00,,,0.00,WeatherCatV1.22B15,2013-12-10 22:03:00,
2013-12-10 17:04:00,28.2,26.7,29.83,SSW,199,0.0,3.0,94,0.00,,,0.00,WeatherCatV1.22B15,2013-12-10 22:04:00,
2013-12-10 17:05:00,28.2,26.7,29.82,SSW,199,1.0,3.0,94,0.00,,,0.00,WeatherCatV1.22B15,2013-12-10 22:05:00,
2013-12-10 17:07:00,28.2,26.7,29.83,SSW,199,1.0,3.0,94,0.00,,,0.00,WeatherCatV1.22B15,2013-12-10 22:07:00,
2013-12-10 17:08:00,28.3,26.8,29.83,SSW,199,0.0,3.0,94,0.00,,,0.00,WeatherCatV1.22B15,2013-12-10 22:08:00,
2013-12-10 17:09:00,28.2,26.7,29.83,SSW,199,0.0,2.0,94,0.00,,,0.00,WeatherCatV1.22B15,2013-12-10 22:09:00,
2013-12-10 17:10:00,28.2,26.7,29.83,SSW,199,0.0,2.0,94,0.00,,,0.00,WeatherCatV1.22B15,2013-12-10 22:10:00,
2013-12-10 17:11:00,28.3,26.8,29.83,SSW,199,0.0,1.0,94,0.00,,,0.00,WeatherCatV1.22B15,2013-12-10 22:11:00,
2013-12-10 17:12:00,28.1,26.6,29.83,SSW,203,0.0,4.0,94,0.00,,,0.00,WeatherCatV1.22B15,2013-12-10 22:12:00,
2013-12-10 17:14:00,28.1,26.6,29.83,SSW,203,2.0,3.0,94,0.00,,,0.00,WeatherCatV1.22B15,2013-12-10 22:14:00,
2013-12-10 17:15:00,28.1,26.6,29.83,SSW,203,1.0,3.0,94,0.00,,,0.00,WeatherCatV1.22B15,2013-12-10 22:15:00,
2013-12-10 17:17:00,28.1,26.6,29.83,SSW,203,0.0,3.0,94,0.00,,,0.00,WeatherCatV1.22B15,2013-12-10 22:17:00,
2013-12-10 17:19:00,28.0,26.2,29.83,SSW,203,2.0,3.0,93,0.00,,,0.00,WeatherCatV1.22B15,2013-12-10 22:19:00,
2013-12-10 17:20:00,28.0,26.5,29.83,SSW,203,2.0,4.0,94,0.00,,,0.00,WeatherCatV1.22B15,2013-12-10 22:20:00,
2013-12-10 17:21:00,27.9,26.4,29.83,SSW,203,0.0,4.0,94,0.00,,,0.00,WeatherCatV1.22B15,2013-12-10 22:21:00,
2013-12-10 17:23:00,28.0,26.5,29.83,SSW,203,3.0,3.0,94,0.00,,,0.00,WeatherCatV1.22B15,2013-12-10 22:23:00,
2013-12-10 17:25:00,27.8,26.3,29.83,SSW,203,3.0,4.0,94,0.00,,,0.00,WeatherCatV1.22B15,2013-12-10 22:25:00,
2013-12-10 17:26:00,27.8,26.3,29.83,SSW,203,0.0,3.0,94,0.00,,,0.00,WeatherCatV1.22B15,2013-12-10 22:26:00,
2013-12-10 17:27:00,27.8,26.3,29.83,SSW,203,1.0,3.0,94,0.00,,,0.00,WeatherCatV1.22B15,2013-12-10 22:27:00,
2013-12-10 17:28:00,27.8,26.3,29.83,SSW,203,0.0,3.0,94,0.00,,,0.00,WeatherCatV1.22B15,2013-12-10 22:28:00,
2013-12-10 17:29:00,27.7,26.2,29.83,SSW,203,0.0,2.0,94,0.00,,,0.00,WeatherCatV1.22B15,2013-12-10 22:29:00,
2013-12-10 17:32:00,27.7,26.0,29.83,SSW,203,0.0,0.0,93,0.00,,,0.00,WeatherCatV1.22B15,2013-12-10 22:32:00,
2013-12-10 17:33:00,27.6,25.9,29.84,SSW,203,0.0,0.0,93,0.00,,,0.00,WeatherCatV1.22B15,2013-12-10 22:33:00,
2013-12-10 17:34:00,27.7,26.2,29.84,SSW,203,0.0,0.0,94,0.00,,,0.00,WeatherCatV1.22B15,2013-12-10 22:34:00,
2013-12-10 17:35:00,27.7,26.0,29.83,SSW,203,1.0,2.0,93,0.00,,,0.00,WeatherCatV1.22B15,2013-12-10 22:35:00,
2013-12-10 17:37:00,27.5,26.0,29.83,SSW,203,1.0,2.0,94,0.00,,,0.00,WeatherCatV1.22B15,2013-12-10 22:37:00,
2013-12-10 17:39:00,27.5,25.8,29.84,SSW,203,0.0,2.0,93,0.00,,,0.00,WeatherCatV1.22B15,2013-12-10 22:39:00,
2013-12-10 17:40:00,27.4,25.6,29.84,SSW,203,0.0,0.0,93,0.00,,,0.00,WeatherCatV1.22B15,2013-12-10 22:40:00,
2013-12-10 17:41:00,27.4,25.6,29.84,SSW,203,0.0,0.0,93,0.00,,,0.00,WeatherCatV1.22B15,2013-12-10 22:41:00,
2013-12-10 17:42:00,27.4,25.6,29.84,SSW,203,0.0,0.0,93,0.00,,,0.00,WeatherCatV1.22B15,2013-12-10 22:42:00,
2013-12-10 17:45:00,27.3,25.5,29.84,SSW,203,0.0,2.0,93,0.00,,,0.00,WeatherCatV1.22B15,2013-12-10 22:45:00,
2013-12-10 17:47:00,27.2,25.7,29.85,SSW,203,0.0,0.0,94,0.00,,,0.00,WeatherCatV1.22B15,2013-12-10 22:47:00,
2013-12-10 17:48:00,27.2,25.5,29.85,SSW,203,0.0,0.0,93,0.00,,,0.00,WeatherCatV1.22B15,2013-12-10 22:48:00,
2013-12-10 17:51:00,27.1,25.4,29.85,SSW,203,0.0,1.0,93,0.00,,,0.00,WeatherCatV1.22B15,2013-12-10 22:51:00,
2013-12-10 17:52:00,26.9,25.1,29.84,SSW,203,2.0,2.0,93,0.00,,,0.00,WeatherCatV1.22B15,2013-12-10 22:52:00,
2013-12-10 17:53:00,26.9,25.4,29.85,SSW,203,0.0,2.0,94,0.00,,,0.00,WeatherCatV1.22B15,2013-12-10 22:53:00,
2013-12-10 17:55:00,26.9,25.4,29.84,SSW,203,0.0,0.0,94,0.00,,,0.00,WeatherCatV1.22B15,2013-12-10 22:55:00,
2013-12-10 17:57:00,26.8,25.3,29.85,SSW,203,1.0,2.0,94,0.00,,,0.00,WeatherCatV1.22B15,2013-12-10 22:57:00,
2013-12-10 17:58:00,26.7,25.0,29.85,SSW,203,0.0,2.0,93,0.00,,,0.00,WeatherCatV1.22B15,2013-12-10 22:58:00,
2013-12-10 17:59:00,26.8,25.3,29.86,SSW,203,0.0,2.0,94,0.00,,,0.00,WeatherCatV1.22B15,2013-12-10 22:59:00,
2013-12-10 18:00:00,26.8,25.0,29.86,SSW,203,0.0,2.0,93,0.00,,,0.00,WeatherCatV1.22B15,2013-12-10 23:00:00,
2013-12-10 18:01:00,26.6,24.9,29.86,SSW,203,0.0,1.0,93,0.00,,,0.00,WeatherCatV1.22B15,2013-12-10 23:01:00,
2013-12-10 18:03:00,26.6,24.9,29.85,SSW,203,0.0,2.0,93,0.00,,,0.00,WeatherCatV1.22B15,2013-12-10 23:03:00,
2013-12-10 18:04:00,26.6,24.9,29.86,SSW,203,0.0,2.0,93,0.00,,,0.00,WeatherCatV1.22B15,2013-12-10 23:04:00,
2013-12-10 18:06:00,26.6,24.9,29.86,SSW,203,0.0,1.0,93,0.00,,,0.00,WeatherCatV1.22B15,2013-12-10 23:06:00,
2013-12-10 18:08:00,26.6,24.6,29.85,SSW,203,0.0,5.0,92,0.00,,,0.00,WeatherCatV1.22B15,2013-12-10 23:08:00,
2013-12-10 18:09:00,26.6,24.6,29.86,SSW,203,1.0,3.0,92,0.00,,,0.00,WeatherCatV1.22B15,2013-12-10 23:09:00,
2013-12-10 18:10:00,26.4,24.4,29.86,SSW,203,2.0,3.0,92,0.00,,,0.00,WeatherCatV1.22B15,2013-12-10 23:10:00,
2013-12-10 18:11:00,26.4,24.4,29.85,SSW,203,2.0,3.0,92,0.00,,,0.00,WeatherCatV1.22B15,2013-12-10 23:11:00,
2013-12-10 18:13:00,26.5,24.5,29.86,SSW,203,0.0,2.0,92,0.00,,,0.00,WeatherCatV1.22B15,2013-12-10 23:13:00,
2013-12-10 18:14:00,26.3,24.3,29.86,SSW,203,0.0,0.0,92,0.00,,,0.00,WeatherCatV1.22B15,2013-12-10 23:14:00,
2013-12-10 18:15:00,26.4,24.4,29.86,SSW,203,0.0,0.0,92,0.00,,,0.00,WeatherCatV1.22B15,2013-12-10 23:15:00,
2013-12-10 18:16:00,26.4,24.4,29.86,SSW,203,0.0,0.0,92,0.00,,,0.00,WeatherCatV1.22B15,2013-12-10 23:16:00,
2013-12-10 18:17:00,26.3,24.3,29.86,SSW,203,0.0,0.0,92,0.00,,,0.00,WeatherCatV1.22B15,2013-12-10 23:17:00,
2013-12-10 18:18:00,26.3,24.0,29.86,SSW,203,0.0,0.0,91,0.00,,,0.00,WeatherCatV1.22B15,2013-12-10 23:18:00,
2013-12-10 18:19:00,26.2,23.9,29.87,SSW,203,0.0,0.0,91,0.00,,,0.00,WeatherCatV1.22B15,2013-12-10 23:19:00,
2013-12-10 18:21:00,26.2,23.9,29.86,SSW,203,0.0,0.0,91,0.00,,,0.00,WeatherCatV1.22B15,2013-12-10 23:21:00,
2013-12-10 18:22:00,26.0,23.7,29.87,SSW,203,0.0,0.0,91,0.00,,,0.00,WeatherCatV1.22B15,2013-12-10 23:22:00,
2013-12-10 18:23:00,26.0,23.7,29.87,SSW,203,0.0,0.0,91,0.00,,,0.00,WeatherCatV1.22B15,2013-12-10 23:23:00,
2013-12-10 18:25:00,26.0,23.7,29.87,SSW,203,2.0,2.0,91,0.00,,,0.00,WeatherCatV1.22B15,2013-12-10 23:25:00,
2013-12-10 18:26:00,26.0,23.7,29.87,SSW,203,0.0,2.0,91,0.00,,,0.00,WeatherCatV1.22B15,2013-12-10 23:26:00,
2013-12-10 18:28:00,25.9,23.4,29.87,SSW,203,0.0,1.0,90,0.00,,,0.00,WeatherCatV1.22B15,2013-12-10 23:28:00,
2013-12-10 18:29:00,25.9,23.4,29.87,SSW,203,0.0,2.0,90,0.00,,,0.00,WeatherCatV1.22B15,2013-12-10 23:29:00,
2013-12-10 18:31:00,25.9,23.4,29.87,SSW,203,0.0,3.0,90,0.00,,,0.00,WeatherCatV1.22B15,2013-12-10 23:31:00,
2013-12-10 18:33:00,25.9,23.4,29.87,SSW,203,1.0,1.0,90,0.00,,,0.00,WeatherCatV1.22B15,2013-12-10 23:33:00,
2013-12-10 18:34:00,25.9,23.4,29.87,SSW,203,1.0,3.0,90,0.00,,,0.00,WeatherCatV1.22B15,2013-12-10 23:34:00,
2013-12-10 18:35:00,25.9,23.4,29.87,SSW,203,2.0,3.0,90,0.00,,,0.00,WeatherCatV1.22B15,2013-12-10 23:35:00,
2013-12-10 18:36:00,25.9,23.4,29.87,SSW,203,1.0,2.0,90,0.00,,,0.00,WeatherCatV1.22B15,2013-12-10 23:36:00,
2013-12-10 18:37:00,25.9,23.4,29.88,SSW,203,2.0,3.0,90,0.00,,,0.00,WeatherCatV1.22B15,2013-12-10 23:37:00,
2013-12-10 18:38:00,26.0,23.5,29.87,SSW,212,2.0,4.0,90,0.00,,,0.00,WeatherCatV1.22B15,2013-12-10 23:38:00,
2013-12-10 18:40:00,26.0,23.2,29.87,SSW,212,0.0,2.0,89,0.00,,,0.00,WeatherCatV1.22B15,2013-12-10 23:40:00,
2013-12-10 18:41:00,26.2,23.4,29.87,SSW,212,0.0,2.0,89,0.00,,,0.00,WeatherCatV1.22B15,2013-12-10 23:41:00,
2013-12-10 18:42:00,26.2,23.1,29.87,SSW,212,1.0,2.0,88,0.00,,,0.00,WeatherCatV1.22B15,2013-12-10 23:42:00,
2013-12-10 18:43:00,26.1,23.0,29.87,SSW,212,1.0,2.0,88,0.00,,,0.00,WeatherCatV1.22B15,2013-12-10 23:43:00,
2013-12-10 18:44:00,26.0,22.9,29.88,SSW,212,0.0,2.0,88,0.00,,,0.00,WeatherCatV1.22B15,2013-12-10 23:44:00,
2013-12-10 18:45:00,26.0,22.9,29.87,SSW,212,0.0,0.0,88,0.00,,,0.00,WeatherCatV1.22B15,2013-12-10 23:45:00,
2013-12-10 18:46:00,26.0,22.9,29.87,SSW,212,0.0,0.0,88,0.00,,,0.00,WeatherCatV1.22B15,2013-12-10 23:46:00,
2013-12-10 18:48:00,26.0,22.9,29.86,SSW,212,0.0,0.0,88,0.00,,,0.00,WeatherCatV1.22B15,2013-12-10 23:48:00,
2013-12-10 18:50:00,25.9,22.9,29.88,SSW,212,0.0,2.0,88,0.00,,,0.00,WeatherCatV1.22B15,2013-12-10 23:50:00,
2013-12-10 18:51:00,25.9,22.9,29.88,SSW,212,0.0,0.0,88,0.00,,,0.00,WeatherCatV1.22B15,2013-12-10 23:51:00,
2013-12-10 18:54:00,25.8,22.8,29.86,SSW,212,0.0,3.0,88,0.00,,,0.00,WeatherCatV1.22B15,2013-12-10 23:54:00,
2013-12-10 18:55:00,25.9,22.9,29.87,SSW,212,0.0,0.0,88,0.00,,,0.00,WeatherCatV1.22B15,2013-12-10 23:55:00,
2013-12-10 18:56:00,25.7,22.4,29.87,SSW,212,1.0,1.0,87,0.00,,,0.00,WeatherCatV1.22B15,2013-12-10 23:56:00,
2013-12-10 18:57:00,25.7,22.4,29.88,SSW,212,0.0,1.0,87,0.00,,,0.00,WeatherCatV1.22B15,2013-12-10 23:57:00,
2013-12-10 18:58:00,25.7,22.4,29.88,SSW,212,0.0,2.0,87,0.00,,,0.00,WeatherCatV1.22B15,2013-12-10 23:58:00,
2013-12-10 18:59:00,25.7,22.4,29.88,SSW,212,0.0,3.0,87,0.00,,,0.00,WeatherCatV1.22B15,2013-12-10 23:59:00,
2013-12-10 19:00:00,25.7,22.4,29.88,SSW,212,0.0,3.0,87,0.00,,,0.00,WeatherCatV1.22B15,2013-12-11 00:00:00,
2013-12-10 19:01:00,25.7,22.4,29.90,SSW,212,0.0,1.0,87,0.00,,,0.00,WeatherCatV1.22B15,2013-12-11 00:01:00,
2013-12-10 19:02:00,25.6,22.3,29.88,SSW,212,0.0,0.0,87,0.00,,,0.00,WeatherCatV1.22B15,2013-12-11 00:02:00,
2013-12-10 19:03:00,25.6,22.3,29.88,SSW,212,0.0,0.0,87,0.00,,,0.00,WeatherCatV1.22B15,2013-12-11 00:03:00,
2013-12-10 19:05:00,25.5,22.2,29.87,SSW,212,0.0,0.0,87,0.00,,,0.00,WeatherCatV1.22B15,2013-12-11 00:05:00,
2013-12-10 19:06:00,25.5,22.2,29.88,SSW,212,0.0,0.0,87,0.00,,,0.00,WeatherCatV1.22B15,2013-12-11 00:06:00,
2013-12-10 19:07:00,25.4,22.1,29.88,SSW,212,0.0,1.0,87,0.00,,,0.00,WeatherCatV1.22B15,2013-12-11 00:07:00,
2013-12-10 19:08:00,25.4,22.1,29.87,SSW,212,0.0,1.0,87,0.00,,,0.00,WeatherCatV1.22B15,2013-12-11 00:08:00,
2013-12-10 19:10:00,25.3,22.0,29.86,SSW,212,0.0,2.0,87,0.00,,,0.00,WeatherCatV1.22B15,2013-12-11 00:10:00,
2013-12-10 19:11:00,25.3,22.0,29.88,SSW,212,2.0,2.0,87,0.00,,,0.00,WeatherCatV1.22B15,2013-12-11 00:11:00,
2013-12-10 19:12:00,25.3,22.0,29.87,SSW,212,0.0,4.0,87,0.00,,,0.00,WeatherCatV1.22B15,2013-12-11 00:12:00,
2013-12-10 19:13:00,25.3,22.0,29.87,SSW,212,0.0,1.0,87,0.00,,,0.00,WeatherCatV1.22B15,2013-12-11 00:13:00,
2013-12-10 19:15:00,25.1,21.8,29.86,SSW,212,0.0,2.0,87,0.00,,,0.00,WeatherCatV1.22B15,2013-12-11 00:15:00,
2013-12-10 19:16:00,25.1,21.8,29.88,SSW,212,0.0,2.0,87,0.00,,,0.00,WeatherCatV1.22B15,2013-12-11 00:16:00,
2013-12-10 19:17:00,25.3,22.0,29.88,SSW,212,0.0,4.0,87,0.00,,,0.00,WeatherCatV1.22B15,2013-12-11 00:17:00,
2013-12-10 19:19:00,25.3,22.0,29.89,SSW,212,0.0,4.0,87,0.00,,,0.00,WeatherCatV1.22B15,2013-12-11 00:19:00,
2013-12-10 19:20:00,25.3,22.0,29.88,SSW,212,0.0,1.0,87,0.00,,,0.00,WeatherCatV1.22B15,2013-12-11 00:20:00,
2013-12-10 19:21:00,25.3,22.0,29.88,SSW,212,0.0,0.0,87,0.00,,,0.00,WeatherCatV1.22B15,2013-12-11 00:21:00,
2013-12-10 19:23:00,25.2,21.9,29.88,SSW,212,3.0,3.0,87,0.00,,,0.00,WeatherCatV1.22B15,2013-12-11 00:23:00,
2013-12-10 19:25:00,25.3,22.0,29.88,SSW,212,2.0,3.0,87,0.00,,,0.00,WeatherCatV1.22B15,2013-12-11 00:25:00,
2013-12-10 19:26:00,25.3,21.7,29.88,SSW,212,0.0,2.0,86,0.00,,,0.00,WeatherCatV1.22B15,2013-12-11 00:26:00,
2013-12-10 19:27:00,25.3,21.7,29.88,SSW,212,0.0,0.0,86,0.00,,,0.00,WeatherCatV1.22B15,2013-12-11 00:27:00,
2013-12-10 19:28:00,25.3,21.7,29.89,SSW,212,0.0,2.0,86,0.00,,,0.00,WeatherCatV1.22B15,2013-12-11 00:28:00,
2013-12-10 19:31:00,25.2,21.6,29.88,SSW,213,1.0,4.0,86,0.00,,,0.00,WeatherCatV1.22B15,2013-12-11 00:31:00,
2013-12-10 19:32:00,25.3,21.7,29.87,SW,217,1.0,5.0,86,0.00,,,0.00,WeatherCatV1.22B15,2013-12-11 00:32:00,
2013-12-10 19:33:00,25.3,21.7,29.88,SW,217,2.0,5.0,86,0.00,,,0.00,WeatherCatV1.22B15,2013-12-11 00:33:00,
2013-12-10 19:34:00,25.3,21.7,29.89,SW,217,1.0,5.0,86,0.00,,,0.00,WeatherCatV1.22B15,2013-12-11 00:34:00,
2013-12-10 19:37:00,25.6,21.5,29.88,SW,217,1.0,1.0,84,0.00,,,0.00,WeatherCatV1.22B15,2013-12-11 00:37:00,
2013-12-10 19:38:00,25.6,21.5,29.89,SW,217,0.0,1.0,84,0.00,,,0.00,WeatherCatV1.22B15,2013-12-11 00:38:00,
2013-12-10 19:39:00,25.5,21.4,29.89,SW,217,0.0,0.0,84,0.00,,,0.00,WeatherCatV1.22B15,2013-12-11 00:39:00,
2013-12-10 19:40:00,25.6,21.5,29.88,SW,217,1.0,1.0,84,0.00,,,0.00,WeatherCatV1.22B15,2013-12-11 00:40:00,
2013-12-10 19:42:00,25.5,21.4,29.88,SW,218,1.0,3.0,84,0.00,,,0.00,WeatherCatV1.22B15,2013-12-11 00:42:00,
2013-12-10 19:43:00,25.5,21.4,29.87,SW,217,2.0,3.0,84,0.00,,,0.00,WeatherCatV1.22B15,2013-12-11 00:43:00,
2013-12-10 19:44:00,25.6,21.5,29.88,SW,217,1.0,4.0,84,0.00,,,0.00,WeatherCatV1.22B15,2013-12-11 00:44:00,
2013-12-10 19:45:00,25.6,21.2,29.88,SW,218,2.0,4.0,83,0.00,,,0.00,WeatherCatV1.22B15,2013-12-11 00:45:00,
2013-12-10 19:46:00,25.6,21.2,29.88,SW,222,2.0,5.0,83,0.00,,,0.00,WeatherCatV1.22B15,2013-12-11 00:46:00,
2013-12-10 19:48:00,25.7,21.0,29.89,SW,222,0.0,2.0,82,0.00,,,0.00,WeatherCatV1.22B15,2013-12-11 00:48:00,
2013-12-10 19:50:00,25.7,21.3,29.89,SW,222,0.0,3.0,83,0.00,,,0.00,WeatherCatV1.22B15,2013-12-11 00:50:00,
2013-12-10 19:51:00,25.7,21.3,29.89,SW,222,0.0,0.0,83,0.00,,,0.00,WeatherCatV1.22B15,2013-12-11 00:51:00,
2013-12-10 19:54:00,25.6,21.2,29.89,SW,222,1.0,2.0,83,0.00,,,0.00,WeatherCatV1.22B15,2013-12-11 00:54:00,
2013-12-10 19:55:00,25.5,20.8,29.88,SW,222,1.0,2.0,82,0.00,,,0.00,WeatherCatV1.22B15,2013-12-11 00:55:00,
2013-12-10 19:56:00,25.6,20.9,29.89,SW,222,1.0,4.0,82,0.00,,,0.00,WeatherCatV1.22B15,2013-12-11 00:56:00,
2013-12-10 19:57:00,25.6,20.9,29.89,SW,222,1.0,4.0,82,0.00,,,0.00,WeatherCatV1.22B15,2013-12-11 00:57:00,
2013-12-10 19:58:00,25.6,20.9,29.89,SW,222,1.0,2.0,82,0.00,,,0.00,WeatherCatV1.22B15,2013-12-11 00:58:00,
2013-12-10 19:59:00,25.6,20.9,29.89,SW,222,0.0,3.0,82,0.00,,,0.00,WeatherCatV1.22B15,2013-12-11 00:59:00,
2013-12-10 20:00:00,25.6,20.9,29.89,SW,222,2.0,3.0,82,0.00,,,0.00,WeatherCatV1.22B15,2013-12-11 01:00:00,
2013-12-10 20:03:00,25.4,20.7,29.89,SW,222,0.0,2.0,82,0.00,,,0.00,WeatherCatV1.22B15,2013-12-11 01:03:00,
2013-12-10 20:06:00,25.4,20.4,29.89,SW,222,0.0,0.0,81,0.00,,,0.00,WeatherCatV1.22B15,2013-12-11 01:06:00,
2013-12-10 20:08:00,25.4,20.4,29.89,SW,222,0.0,3.0,81,0.00,,,0.00,WeatherCatV1.22B15,2013-12-11 01:08:00,
2013-12-10 20:09:00,25.3,20.3,29.90,SW,222,0.0,0.0,81,0.00,,,0.00,WeatherCatV1.22B15,2013-12-11 01:09:00,
2013-12-10 20:11:00,25.2,20.5,29.89,SW,222,0.0,1.0,82,0.00,,,0.00,WeatherCatV1.22B15,2013-12-11 01:11:00,
2013-12-10 20:13:00,25.1,20.4,29.89,SW,223,1.0,3.0,82,0.00,,,0.00,WeatherCatV1.22B15,2013-12-11 01:13:00,
2013-12-10 20:14:00,25.1,20.1,29.89,SW,223,0.0,2.0,81,0.00,,,0.00,WeatherCatV1.22B15,2013-12-11 01:14:00,
2013-12-10 20:15:00,25.1,20.1,29.89,SW,223,0.0,1.0,81,0.00,,,0.00,WeatherCatV1.22B15,2013-12-11 01:15:00,
2013-12-10 20:16:00,25.1,20.1,29.89,SW,223,0.0,1.0,81,0.00,,,0.00,WeatherCatV1.22B15,2013-12-11 01:16:00,
2013-12-10 20:18:00,25.1,20.1,29.89,SW,223,0.0,2.0,81,0.00,,,0.00,WeatherCatV1.22B15,2013-12-11 01:18:00,
2013-12-10 20:20:00,25.1,19.8,29.90,SW,223,3.0,4.0,80,0.00,,,0.00,WeatherCatV1.22B15,2013-12-11 01:20:00,
2013-12-10 20:21:00,25.1,19.8,29.90,SW,223,0.0,4.0,80,0.00,,,0.00,WeatherCatV1.22B15,2013-12-11 01:21:00,
2013-12-10 20:25:00,25.3,20.0,29.91,SW,223,0.0,2.0,80,0.00,,,0.00,WeatherCatV1.22B15,2013-12-11 01:25:00,
2013-12-10 20:26:00,25.3,20.0,29.92,SW,223,0.0,2.0,80,0.00,,,0.00,WeatherCatV1.22B15,2013-12-11 01:26:00,
2013-12-10 20:27:00,25.2,19.9,29.91,SW,223,0.0,0.0,80,0.00,,,0.00,WeatherCatV1.22B15,2013-12-11 01:27:00,
2013-12-10 20:30:00,25.1,19.8,29.90,SW,223,0.0,0.0,80,0.00,,,0.00,WeatherCatV1.22B15,2013-12-11 01:30:00,
2013-12-10 20:31:00,25.1,19.8,29.91,SW,223,0.0,0.0,80,0.00,,,0.00,WeatherCatV1.22B15,2013-12-11 01:31:00,
2013-12-10 20:32:00,24.9,19.6,29.90,SW,223,1.0,3.0,80,0.00,,,0.00,WeatherCatV1.22B15,2013-12-11 01:32:00,
2013-12-10 20:36:00,24.7,19.4,29.91,SW,223,0.0,0.0,80,0.00,,,0.00,WeatherCatV1.22B15,2013-12-11 01:36:00,
2013-12-10 20:37:00,24.5,19.5,29.89,SW,223,0.0,2.0,81,0.00,,,0.00,WeatherCatV1.22B15,2013-12-11 01:37:00,
2013-12-10 20:38:00,24.5,19.8,29.90,SW,223,0.0,2.0,82,0.00,,,0.00,WeatherCatV1.22B15,2013-12-11 01:38:00,
2013-12-10 20:39:00,24.4,19.7,29.90,SW,223,2.0,2.0,82,0.00,,,0.00,WeatherCatV1.22B15,2013-12-11 01:39:00,
2013-12-10 20:40:00,24.3,19.6,29.90,SW,223,1.0,2.0,82,0.00,,,0.00,WeatherCatV1.22B15,2013-12-11 01:40:00,
2013-12-10 20:42:00,24.1,19.4,29.90,SW,223,0.0,3.0,82,0.00,,,0.00,WeatherCatV1.22B15,2013-12-11 01:42:00,
2013-12-10 20:43:00,23.9,19.2,29.91,SW,223,0.0,2.0,82,0.00,,,0.00,WeatherCatV1.22B15,2013-12-11 01:43:00,
2013-12-10 20:44:00,23.8,19.4,29.91,SW,223,0.0,0.0,83,0.00,,,0.00,WeatherCatV1.22B15,2013-12-11 01:44:00,
2013-12-10 20:47:00,23.6,19.5,29.90,SW,223,1.0,2.0,84,0.00,,,0.00,WeatherCatV1.22B15,2013-12-11 01:47:00,
2013-12-10 20:48:00,23.6,19.5,29.90,SW,223,0.0,2.0,84,0.00,,,0.00,WeatherCatV1.22B15,2013-12-11 01:48:00,
2013-12-10 20:49:00,23.5,19.1,29.91,SW,223,0.0,3.0,83,0.00,,,0.00,WeatherCatV1.22B15,2013-12-11 01:49:00,
2013-12-10 20:50:00,23.5,19.4,29.90,SW,223,0.0,3.0,84,0.00,,,0.00,WeatherCatV1.22B15,2013-12-11 01:50:00,
2013-12-10 20:53:00,23.4,19.3,29.90,SW,223,0.0,1.0,84,0.00,,,0.00,WeatherCatV1.22B15,2013-12-11 01:53:00,
2013-12-10 20:55:00,23.2,19.4,29.91,SW,223,0.0,3.0,85,0.00,,,0.00,WeatherCatV1.22B15,2013-12-11 01:55:00,
2013-12-10 20:56:00,23.2,19.1,29.89,SW,223,0.0,1.0,84,0.00,,,0.00,WeatherCatV1.22B15,2013-12-11 01:56:00,
2013-12-10 20:58:00,23.2,19.1,29.90,SW,223,1.0,3.0,84,0.00,,,0.00,WeatherCatV1.22B15,2013-12-11 01:58:00,
2013-12-10 20:59:00,23.2,19.1,29.90,SW,223,1.0,2.0,84,0.00,,,0.00,WeatherCatV1.22B15,2013-12-11 01:59:00,
2013-12-10 21:00:00,23.2,19.1,29.91,SW,223,1.0,3.0,84,0.00,,,0.00,WeatherCatV1.22B15,2013-12-11 02:00:00,
2013-12-10 21:02:00,23.2,18.8,29.90,SW,223,1.0,2.0,83,0.00,,,0.00,WeatherCatV1.22B15,2013-12-11 02:02:00,
2013-12-10 21:03:00,23.2,18.8,29.90,SW,223,1.0,3.0,83,0.00,,,0.00,WeatherCatV1.22B15,2013-12-11 02:03:00,
2013-12-10 21:04:00,23.2,18.8,29.91,SW,223,1.0,2.0,83,0.00,,,0.00,WeatherCatV1.22B15,2013-12-11 02:04:00,
2013-12-10 21:05:00,23.2,18.8,29.91,SW,223,0.0,2.0,83,0.00,,,0.00,WeatherCatV1.22B15,2013-12-11 02:05:00,
2013-12-10 21:06:00,23.2,18.8,29.92,SW,223,3.0,3.0,83,0.00,,,0.00,WeatherCatV1.22B15,2013-12-11 02:06:00,
2013-12-10 21:07:00,23.2,18.8,29.92,SW,223,2.0,3.0,83,0.00,,,0.00,WeatherCatV1.22B15,2013-12-11 02:07:00,
2013-12-10 21:08:00,23.2,18.8,29.91,SW,223,0.0,3.0,83,0.00,,,0.00,WeatherCatV1.22B15,2013-12-11 02:08:00,
2013-12-10 21:10:00,23.4,18.7,29.92,SW,223,0.0,1.0,82,0.00,,,0.00,WeatherCatV1.22B15,2013-12-11 02:10:00,
2013-12-10 21:11:00,23.4,18.7,29.92,SW,223,0.0,1.0,82,0.00,,,0.00,WeatherCatV1.22B15,2013-12-11 02:11:00,
2013-12-10 21:12:00,23.3,18.6,29.92,SW,223,0.0,2.0,82,0.00,,,0.00,WeatherCatV1.22B15,2013-12-11 02:12:00,
2013-12-10 21:13:00,23.4,18.7,29.92,SW,223,0.0,2.0,82,0.00,,,0.00,WeatherCatV1.22B15,2013-12-11 02:13:00,
2013-12-10 21:15:00,23.3,18.4,29.90,SW,223,0.0,3.0,81,0.00,,,0.00,WeatherCatV1.22B15,2013-12-11 02:15:00,
2013-12-10 21:16:00,23.4,18.5,29.92,SW,223,1.0,2.0,81,0.00,,,0.00,WeatherCatV1.22B15,2013-12-11 02:16:00,
2013-12-10 21:17:00,23.4,18.5,29.92,SW,223,1.0,2.0,81,0.00,,,0.00,WeatherCatV1.22B15,2013-12-11 02:17:00,
2013-12-10 21:18:00,23.5,18.5,29.91,SW,223,0.0,2.0,81,0.00,,,0.00,WeatherCatV1.22B15,2013-12-11 02:18:00,
2013-12-10 21:20:00,23.3,18.1,29.92,SW,223,0.0,3.0,80,0.00,,,0.00,WeatherCatV1.22B15,2013-12-11 02:20:00,
2013-12-10 21:22:00,23.4,18.2,29.91,SW,223,1.0,3.0,80,0.00,,,0.00,WeatherCatV1.22B15,2013-12-11 02:22:00,
2013-12-10 21:23:00,23.4,18.2,29.92,SW,223,0.0,2.0,80,0.00,,,0.00,WeatherCatV1.22B15,2013-12-11 02:23:00,
2013-12-10 21:24:00,23.4,18.2,29.92,SW,223,2.0,4.0,80,0.00,,,0.00,WeatherCatV1.22B15,2013-12-11 02:24:00,
2013-12-10 21:25:00,23.4,18.2,29.92,SW,223,3.0,4.0,80,0.00,,,0.00,WeatherCatV1.22B15,2013-12-11 02:25:00,
2013-12-10 21:26:00,23.4,17.9,29.92,SW,236,4.0,5.0,79,0.00,,,0.00,WeatherCatV1.22B15,2013-12-11 02:26:00,
2013-12-10 21:28:00,23.6,17.8,29.93,WSW,245,0.0,3.0,78,0.00,,,0.00,WeatherCatV1.22B15,2013-12-11 02:28:00,
2013-12-10 21:29:00,23.6,17.5,29.93,WSW,245,0.0,3.0,77,0.00,,,0.00,WeatherCatV1.22B15,2013-12-11 02:29:00,
2013-12-10 21:31:00,23.8,17.7,29.93,WSW,245,0.0,2.0,77,0.00,,,0.00,WeatherCatV1.22B15,2013-12-11 02:31:00,
2013-12-10 21:32:00,23.8,17.7,29.93,WSW,246,3.0,4.0,77,0.00,,,0.00,WeatherCatV1.22B15,2013-12-11 02:32:00,
2013-12-10 21:33:00,23.8,17.4,29.93,WSW,246,1.0,4.0,76,0.00,,,0.00,WeatherCatV1.22B15,2013-12-11 02:33:00,
2013-12-10 21:34:00,23.9,17.1,29.94,WSW,246,0.0,2.0,75,0.00,,,0.00,WeatherCatV1.22B15,2013-12-11 02:34:00,
2013-12-10 21:35:00,23.9,17.1,29.93,WSW,246,1.0,2.0,75,0.00,,,0.00,WeatherCatV1.22B15,2013-12-11 02:35:00,
2013-12-10 21:36:00,23.9,17.1,29.93,WSW,246,1.0,3.0,75,0.00,,,0.00,WeatherCatV1.22B15,2013-12-11 02:36:00,
2013-12-10 21:37:00,23.9,17.1,29.94,WSW,246,2.0,4.0,75,0.00,,,0.00,WeatherCatV1.22B15,2013-12-11 02:37:00,
2013-12-10 21:39:00,24.0,16.9,29.94,WSW,248,3.0,5.0,74,0.00,,,0.00,WeatherCatV1.22B15,2013-12-11 02:39:00,
2013-12-10 21:40:00,24.1,16.7,29.94,West,266,5.0,8.0,73,0.00,,,0.00,WeatherCatV1.22B15,2013-12-11 02:40:00,
2013-12-10 21:42:00,24.2,16.2,29.95,WNW,286,3.0,7.0,71,0.00,,,0.00,WeatherCatV1.22B15,2013-12-11 02:42:00,
2013-12-10 21:43:00,24.2,16.2,29.93,WNW,286,2.0,5.0,71,0.00,,,0.00,WeatherCatV1.22B15,2013-12-11 02:43:00,
2013-12-10 21:44:00,24.2,16.2,29.94,WNW,286,3.0,4.0,71,0.00,,,0.00,WeatherCatV1.22B15,2013-12-11 02:44:00,
2013-12-10 21:45:00,24.2,16.2,29.94,WNW,283,6.0,6.0,71,0.00,,,0.00,WeatherCatV1.22B15,2013-12-11 02:45:00,
2013-12-10 21:46:00,24.4,16.0,29.93,WNW,284,2.0,6.0,70,0.00,,,0.00,WeatherCatV1.22B15,2013-12-11 02:46:00,
2013-12-10 21:47:00,24.4,16.0,29.94,WNW,285,2.0,4.0,70,0.00,,,0.00,WeatherCatV1.22B15,2013-12-11 02:47:00,
2013-12-10 21:48:00,24.4,16.0,29.94,WNW,285,4.0,7.0,70,0.00,,,0.00,WeatherCatV1.22B15,2013-12-11 02:48:00,
2013-12-10 21:49:00,24.3,15.9,29.94,WNW,285,0.0,7.0,70,0.00,,,0.00,WeatherCatV1.22B15,2013-12-11 02:49:00,
2013-12-10 21:50:00,24.4,16.0,29.93,WNW,285,3.0,8.0,70,0.00,,,0.00,WeatherCatV1.22B15,2013-12-11 02:50:00,
2013-12-10 21:53:00,24.4,15.7,29.93,West,278,1.0,4.0,69,0.00,,,0.00,WeatherCatV1.22B15,2013-12-11 02:53:00,
2013-12-10 21:54:00,24.4,15.7,29.94,West,278,3.0,4.0,69,0.00,,,0.00,WeatherCatV1.22B15,2013-12-11 02:54:00,
2013-12-10 21:55:00,24.2,15.5,29.95,West,279,4.0,5.0,69,0.00,,,0.00,WeatherCatV1.22B15,2013-12-11 02:55:00,
2013-12-10 21:56:00,24.2,15.2,29.95,West,279,1.0,5.0,68,0.00,,,0.00,WeatherCatV1.22B15,2013-12-11 02:56:00,
2013-12-10 21:58:00,24.2,15.2,29.95,West,279,2.0,4.0,68,0.00,,,0.00,WeatherCatV1.22B15,2013-12-11 02:58:00,
2013-12-10 21:59:00,24.2,15.2,29.95,West,280,0.0,4.0,68,0.00,,,0.00,WeatherCatV1.22B15,2013-12-11 02:59:00,
2013-12-10 22:00:00,24.2,15.2,29.95,West,280,0.0,4.0,68,0.00,,,0.00,WeatherCatV1.22B15,2013-12-11 03:00:00,
2013-12-10 22:02:00,24.1,15.1,29.95,West,268,1.0,4.0,68,0.00,,,0.00,WeatherCatV1.22B15,2013-12-11 03:02:00,
2013-12-10 22:03:00,24.1,15.1,29.95,West,265,2.0,3.0,68,0.00,,,0.00,WeatherCatV1.22B15,2013-12-11 03:03:00,
2013-12-10 22:04:00,24.1,15.1,29.95,West,260,2.0,4.0,68,0.00,,,0.00,WeatherCatV1.22B15,2013-12-11 03:04:00,
2013-12-10 22:05:00,23.9,14.9,29.95,West,260,1.0,5.0,68,0.00,,,0.00,WeatherCatV1.22B15,2013-12-11 03:05:00,
2013-12-10 22:06:00,23.9,14.9,29.95,West,260,1.0,5.0,68,0.00,,,0.00,WeatherCatV1.22B15,2013-12-11 03:06:00,
2013-12-10 22:08:00,23.9,15.2,29.96,West,260,3.0,5.0,69,0.00,,,0.00,WeatherCatV1.22B15,2013-12-11 03:08:00,
2013-12-10 22:10:00,23.8,15.1,29.96,West,260,0.0,5.0,69,0.00,,,0.00,WeatherCatV1.22B15,2013-12-11 03:10:00,
2013-12-10 22:11:00,23.8,15.1,29.96,West,259,5.0,5.0,69,0.00,,,0.00,WeatherCatV1.22B15,2013-12-11 03:11:00,
2013-12-10 22:12:00,23.8,15.1,29.96,West,259,2.0,5.0,69,0.00,,,0.00,WeatherCatV1.22B15,2013-12-11 03:12:00,
2013-12-10 22:13:00,23.8,15.1,29.97,West,259,1.0,5.0,69,0.00,,,0.00,WeatherCatV1.22B15,2013-12-11 03:13:00,
2013-12-10 22:14:00,23.6,14.9,29.97,West,259,1.0,3.0,69,0.00,,,0.00,WeatherCatV1.22B15,2013-12-11 03:14:00,
2013-12-10 22:15:00,23.6,14.9,29.96,West,259,1.0,2.0,69,0.00,,,0.00,WeatherCatV1.22B15,2013-12-11 03:15:00,
2013-12-10 22:16:00,23.6,14.9,29.96,West,259,1.0,2.0,69,0.00,,,0.00,WeatherCatV1.22B15,2013-12-11 03:16:00,
2013-12-10 22:18:00,23.6,15.3,29.96,West,259,1.0,2.0,70,0.00,,,0.00,WeatherCatV1.22B15,2013-12-11 03:18:00,
2013-12-10 22:19:00,23.5,15.2,29.97,West,259,2.0,3.0,70,0.00,,,0.00,WeatherCatV1.22B15,2013-12-11 03:19:00,
2013-12-10 22:21:00,23.5,15.5,29.97,West,259,2.0,3.0,71,0.00,,,0.00,WeatherCatV1.22B15,2013-12-11 03:21:00,
2013-12-10 22:22:00,23.4,15.4,29.97,West,259,3.0,3.0,71,0.00,,,0.00,WeatherCatV1.22B15,2013-12-11 03:22:00,
2013-12-10 22:23:00,23.4,15.1,29.97,West,259,0.0,3.0,70,0.00,,,0.00,WeatherCatV1.22B15,2013-12-11 03:23:00,
2013-12-10 22:24:00,23.4,15.4,29.96,West,259,1.0,3.0,71,0.00,,,0.00,WeatherCatV1.22B15,2013-12-11 03:24:00,
2013-12-10 22:26:00,23.2,15.2,29.97,West,259,2.0,3.0,71,0.00,,,0.00,WeatherCatV1.22B15,2013-12-11 03:26:00,
2013-12-10 22:29:00,23.1,15.1,29.97,West,259,1.0,3.0,71,0.00,,,0.00,WeatherCatV1.22B15,2013-12-11 03:29:00,
2013-12-10 22:32:00,22.9,14.9,29.96,West,259,2.0,3.0,71,0.00,,,0.00,WeatherCatV1.22B15,2013-12-11 03:32:00,
2013-12-10 22:33:00,22.9,15.2,29.96,West,259,0.0,3.0,72,0.00,,,0.00,WeatherCatV1.22B15,2013-12-11 03:33:00,
2013-12-10 22:34:00,22.8,15.1,29.97,West,259,2.0,2.0,72,0.00,,,0.00,WeatherCatV1.22B15,2013-12-11 03:34:00,
2013-12-10 22:35:00,22.7,15.1,29.98,West,259,0.0,3.0,72,0.00,,,0.00,WeatherCatV1.22B15,2013-12-11 03:35:00,
2013-12-10 22:36:00,22.7,15.1,29.97,West,259,0.0,3.0,72,0.00,,,0.00,WeatherCatV1.22B15,2013-12-11 03:36:00,
2013-12-10 22:38:00,22.6,15.0,29.97,West,259,2.0,3.0,72,0.00,,,0.00,WeatherCatV1.22B15,2013-12-11 03:38:00,
2013-12-10 22:40:00,22.5,14.9,29.97,West,259,4.0,4.0,72,0.00,,,0.00,WeatherCatV1.22B15,2013-12-11 03:40:00,
2013-12-10 22:42:00,22.4,15.1,29.95,West,259,1.0,4.0,73,0.00,,,0.00,WeatherCatV1.22B15,2013-12-11 03:42:00,
2013-12-10 22:44:00,22.3,15.0,29.97,West,259,2.0,4.0,73,0.00,,,0.00,WeatherCatV1.22B15,2013-12-11 03:44:00,
2013-12-10 22:46:00,22.1,14.8,29.97,West,259,0.0,3.0,73,0.00,,,0.00,WeatherCatV1.22B15,2013-12-11 03:46:00,
2013-12-10 22:47:00,22.1,15.1,29.97,West,259,1.0,3.0,74,0.00,,,0.00,WeatherCatV1.22B15,2013-12-11 03:47:00,
2013-12-10 22:48:00,22.1,14.8,29.97,West,259,2.0,3.0,73,0.00,,,0.00,WeatherCatV1.22B15,2013-12-11 03:48:00,
2013-12-10 22:51:00,22.0,14.7,29.97,West,259,2.0,4.0,73,0.00,,,0.00,WeatherCatV1.22B15,2013-12-11 03:51:00,
2013-12-10 22:52:00,22.1,14.8,29.97,West,259,3.0,5.0,73,0.00,,,0.00,WeatherCatV1.22B15,2013-12-11 03:52:00,
2013-12-10 22:53:00,22.1,14.8,29.97,West,259,1.0,5.0,73,0.00,,,0.00,WeatherCatV1.22B15,2013-12-11 03:53:00,
2013-12-10 22:54:00,22.1,14.8,29.96,West,259,2.0,3.0,73,0.00,,,0.00,WeatherCatV1.22B15,2013-12-11 03:54:00,
2013-12-10 22:57:00,22.3,15.0,29.97,West,259,2.0,3.0,73,0.00,,,0.00,WeatherCatV1.22B15,2013-12-11 03:57:00,
2013-12-10 22:58:00,22.3,15.0,29.97,West,259,0.0,3.0,73,0.00,,,0.00,WeatherCatV1.22B15,2013-12-11 03:58:00,
2013-12-10 22:59:00,22.1,14.5,29.97,West,259,0.0,3.0,72,0.00,,,0.00,WeatherCatV1.22B15,2013-12-11 03:59:00,
2013-12-10 23:01:00,22.2,14.9,29.97,West,259,2.0,4.0,73,0.00,,,0.00,WeatherCatV1.22B15,2013-12-11 04:01:00,
2013-12-10 23:02:00,22.1,14.8,29.96,West,259,1.0,2.0,73,0.00,,,0.00,WeatherCatV1.22B15,2013-12-11 04:02:00,
2013-12-10 23:04:00,22.1,14.8,29.98,West,259,0.0,2.0,73,0.00,,,0.00,WeatherCatV1.22B15,2013-12-11 04:04:00,
2013-12-10 23:06:00,22.1,14.8,29.97,West,259,0.0,0.0,73,0.00,,,0.00,WeatherCatV1.22B15,2013-12-11 04:06:00,
2013-12-10 23:07:00,22.1,14.8,29.97,West,259,1.0,2.0,73,0.00,,,0.00,WeatherCatV1.22B15,2013-12-11 04:07:00,
2013-12-10 23:08:00,22.0,14.7,29.98,West,259,0.0,3.0,73,0.00,,,0.00,WeatherCatV1.22B15,2013-12-11 04:08:00,
2013-12-10 23:09:00,22.0,14.7,29.97,West,259,1.0,2.0,73,0.00,,,0.00,WeatherCatV1.22B15,2013-12-11 04:09:00,
2013-12-10 23:10:00,22.0,14.7,29.97,West,259,0.0,2.0,73,0.00,,,0.00,WeatherCatV1.22B15,2013-12-11 04:10:00,
2013-12-10 23:11:00,22.0,14.7,29.97,West,259,2.0,3.0,73,0.00,,,0.00,WeatherCatV1.22B15,2013-12-11 04:11:00,
2013-12-10 23:13:00,22.0,14.7,29.97,WNW,294,2.0,7.0,73,0.00,,,0.00,WeatherCatV1.22B15,2013-12-11 04:13:00,
2013-12-10 23:18:00,22.0,14.4,29.96,WNW,293,1.0,2.0,72,0.00,,,0.00,WeatherCatV1.22B15,2013-12-11 04:18:00,
2013-12-10 23:19:00,22.0,14.7,29.97,WNW,293,0.0,2.0,73,0.00,,,0.00,WeatherCatV1.22B15,2013-12-11 04:19:00,
2013-12-10 23:20:00,22.0,14.7,29.98,WNW,293,0.0,0.0,73,0.00,,,0.00,WeatherCatV1.22B15,2013-12-11 04:20:00,
2013-12-10 23:23:00,21.9,14.6,29.97,WNW,293,1.0,3.0,73,0.00,,,0.00,WeatherCatV1.22B15,2013-12-11 04:23:00,
2013-12-10 23:24:00,21.8,14.8,29.98,WNW,293,2.0,3.0,74,0.00,,,0.00,WeatherCatV1.22B15,2013-12-11 04:24:00,
2013-12-10 23:25:00,21.8,14.5,29.99,WNW,293,1.0,3.0,73,0.00,,,0.00,WeatherCatV1.22B15,2013-12-11 04:25:00,
2013-12-10 23:26:00,21.8,14.8,29.98,WNW,293,1.0,3.0,74,0.00,,,0.00,WeatherCatV1.22B15,2013-12-11 04:26:00,
2013-12-10 23:27:00,21.7,14.7,29.99,WNW,293,1.0,2.0,74,0.00,,,0.00,WeatherCatV1.22B15,2013-12-11 04:27:00,
2013-12-10 23:29:00,21.5,14.5,29.98,WNW,293,0.0,2.0,74,0.00,,,0.00,WeatherCatV1.22B15,2013-12-11 04:29:00,
2013-12-10 23:30:00,21.5,14.5,29.98,WNW,293,0.0,2.0,74,0.00,,,0.00,WeatherCatV1.22B15,2013-12-11 04:30:00,
2013-12-10 23:31:00,21.4,14.7,29.98,WNW,293,0.0,0.0,75,0.00,,,0.00,WeatherCatV1.22B15,2013-12-11 04:31:00,
2013-12-10 23:33:00,21.2,14.5,29.99,WNW,293,1.0,2.0,75,0.00,,,0.00,WeatherCatV1.22B15,2013-12-11 04:33:00,
2013-12-10 23:34:00,21.2,14.5,29.99,WNW,293,2.0,3.0,75,0.00,,,0.00,WeatherCatV1.22B15,2013-12-11 04:34:00,
2013-12-10 23:35:00,21.3,14.6,29.99,WNW,293,2.0,3.0,75,0.00,,,0.00,WeatherCatV1.22B15,2013-12-11 04:35:00,
2013-12-10 23:36:00,21.1,14.4,29.99,WNW,293,0.0,0.0,75,0.00,,,0.00,WeatherCatV1.22B15,2013-12-11 04:36:00,
2013-12-10 23:40:00,20.9,14.2,29.99,WNW,293,1.0,2.0,75,0.00,,,0.00,WeatherCatV1.22B15,2013-12-11 04:40:00,
2013-12-10 23:42:00,20.8,14.4,29.99,WNW,293,0.0,2.0,76,0.00,,,0.00,WeatherCatV1.22B15,2013-12-11 04:42:00,
2013-12-10 23:45:00,20.8,14.8,30.00,WNW,293,0.0,2.0,77,0.00,,,0.00,WeatherCatV1.22B15,2013-12-11 04:45:00,
2013-12-10 23:47:00,20.8,14.8,30.00,WNW,293,2.0,4.0,77,0.00,,,0.00,WeatherCatV1.22B15,2013-12-11 04:47:00,
2013-12-10 23:48:00,20.8,14.8,30.00,WNW,293,1.0,2.0,77,0.00,,,0.00,WeatherCatV1.22B15,2013-12-11 04:48:00,
2013-12-10 23:50:00,20.8,14.8,30.00,WNW,293,1.0,3.0,77,0.00,,,0.00,WeatherCatV1.22B15,2013-12-11 04:50:00,
2013-12-10 23:52:00,20.8,14.4,29.99,WNW,293,1.0,3.0,76,0.00,,,0.00,WeatherCatV1.22B15,2013-12-11 04:52:00,
2013-12-10 23:54:00,20.9,14.9,30.00,WNW,293,3.0,4.0,77,0.00,,,0.00,WeatherCatV1.22B15,2013-12-11 04:54:00,
2013-12-10 23:55:00,21.0,14.9,30.00,WNW,293,3.0,4.0,77,0.00,,,0.00,WeatherCatV1.22B15,2013-12-11 04:55:00,
2013-12-10 23:58:00,20.9,14.9,30.00,WNW,293,3.0,4.0,77,0.00,,,0.00,WeatherCatV1.22B15,2013-12-11 04:58:00,
2013-12-10 23:59:00,20.9,14.9,30.00,WNW,293,1.0,4.0,77,0.00,,,0.00,WeatherCatV1.22B15,2013-12-11 04:59:00,